<?xml version="1.0" encoding="UTF-8" standalone="no" ?>
<gpx xmlns="http://www.topografix.com/GPX/1/1" xmlns:xsi="http://www.w3.org/2001/XMLSchema-instance" xsi:schemaLocation="http://www.topografix.com/GPX/1/1 http://www.topografix.com/GPX/1/1/gpx.xsd" version="1.1" creator="VisuGPX - https://www.visugpx.com">
  <metadata>
    <name>Course à pied dans l'après-midi</name>
  </metadata>
  <trk>
    <name><![CDATA[Course à pied dans l'après-midi_1]]></name>
    <trkseg>
      <trkpt lat="48.71137" lon="7.16291">
        <ele>317.6</ele>
        <time>2024-01-26T16:10:25Z</time>
      </trkpt>
      <trkpt lat="48.71139" lon="7.16267">
        <ele>318</ele>
        <time>2024-01-26T16:10:32Z</time>
      </trkpt>
      <trkpt lat="48.71121" lon="7.16258">
        <ele>318.3</ele>
        <time>2024-01-26T16:10:42Z</time>
      </trkpt>
      <trkpt lat="48.71107" lon="7.1624">
        <ele>318.4</ele>
        <time>2024-01-26T16:10:50Z</time>
      </trkpt>
      <trkpt lat="48.71092" lon="7.1622">
        <ele>318.5</ele>
        <time>2024-01-26T16:10:58Z</time>
      </trkpt>
      <trkpt lat="48.71077" lon="7.16202">
        <ele>318.7</ele>
        <time>2024-01-26T16:11:05Z</time>
      </trkpt>
      <trkpt lat="48.7106" lon="7.16189">
        <ele>318.8</ele>
        <time>2024-01-26T16:11:12Z</time>
      </trkpt>
      <trkpt lat="48.71042" lon="7.16181">
        <ele>318.9</ele>
        <time>2024-01-26T16:11:19Z</time>
      </trkpt>
      <trkpt lat="48.71023" lon="7.16175">
        <ele>318.9</ele>
        <time>2024-01-26T16:11:26Z</time>
      </trkpt>
      <trkpt lat="48.71004" lon="7.1617">
        <ele>319.2</ele>
        <time>2024-01-26T16:11:33Z</time>
      </trkpt>
      <trkpt lat="48.70985" lon="7.16164">
        <ele>319.6</ele>
        <time>2024-01-26T16:11:40Z</time>
      </trkpt>
      <trkpt lat="48.70966" lon="7.16161">
        <ele>320.3</ele>
        <time>2024-01-26T16:11:47Z</time>
      </trkpt>
      <trkpt lat="48.70947" lon="7.16156">
        <ele>321</ele>
        <time>2024-01-26T16:11:54Z</time>
      </trkpt>
      <trkpt lat="48.70928" lon="7.16151">
        <ele>321.6</ele>
        <time>2024-01-26T16:12:01Z</time>
      </trkpt>
      <trkpt lat="48.7091" lon="7.16145">
        <ele>322.3</ele>
        <time>2024-01-26T16:12:08Z</time>
      </trkpt>
      <trkpt lat="48.70891" lon="7.1614">
        <ele>322.9</ele>
        <time>2024-01-26T16:12:15Z</time>
      </trkpt>
      <trkpt lat="48.70871" lon="7.16139">
        <ele>323.7</ele>
        <time>2024-01-26T16:12:22Z</time>
      </trkpt>
      <trkpt lat="48.70853" lon="7.16135">
        <ele>324.4</ele>
        <time>2024-01-26T16:12:29Z</time>
      </trkpt>
      <trkpt lat="48.70834" lon="7.16131">
        <ele>325.2</ele>
        <time>2024-01-26T16:12:36Z</time>
      </trkpt>
      <trkpt lat="48.70828" lon="7.16134">
        <ele>325.4</ele>
        <time>2024-01-26T16:12:40Z</time>
      </trkpt>
      <trkpt lat="48.70815" lon="7.16155">
        <ele>327.6</ele>
        <time>2024-01-26T16:12:48Z</time>
      </trkpt>
      <trkpt lat="48.70801" lon="7.16176">
        <ele>329.4</ele>
        <time>2024-01-26T16:12:57Z</time>
      </trkpt>
      <trkpt lat="48.70788" lon="7.16195">
        <ele>330.9</ele>
        <time>2024-01-26T16:13:05Z</time>
      </trkpt>
      <trkpt lat="48.70776" lon="7.1622">
        <ele>332.6</ele>
        <time>2024-01-26T16:13:14Z</time>
      </trkpt>
      <trkpt lat="48.70764" lon="7.16242">
        <ele>334.3</ele>
        <time>2024-01-26T16:13:23Z</time>
      </trkpt>
      <trkpt lat="48.70752" lon="7.16267">
        <ele>336.1</ele>
        <time>2024-01-26T16:13:32Z</time>
      </trkpt>
      <trkpt lat="48.7074" lon="7.16287">
        <ele>337.7</ele>
        <time>2024-01-26T16:13:40Z</time>
      </trkpt>
      <trkpt lat="48.70727" lon="7.16311">
        <ele>339.3</ele>
        <time>2024-01-26T16:13:48Z</time>
      </trkpt>
      <trkpt lat="48.70716" lon="7.16333">
        <ele>340.8</ele>
        <time>2024-01-26T16:13:56Z</time>
      </trkpt>
      <trkpt lat="48.70703" lon="7.16356">
        <ele>342.4</ele>
        <time>2024-01-26T16:14:04Z</time>
      </trkpt>
      <trkpt lat="48.70691" lon="7.16377">
        <ele>343.9</ele>
        <time>2024-01-26T16:14:12Z</time>
      </trkpt>
      <trkpt lat="48.70678" lon="7.16399">
        <ele>345.4</ele>
        <time>2024-01-26T16:14:20Z</time>
      </trkpt>
      <trkpt lat="48.70666" lon="7.16422">
        <ele>346.6</ele>
        <time>2024-01-26T16:14:28Z</time>
      </trkpt>
      <trkpt lat="48.70655" lon="7.16446">
        <ele>347.5</ele>
        <time>2024-01-26T16:14:36Z</time>
      </trkpt>
      <trkpt lat="48.70642" lon="7.16469">
        <ele>348.4</ele>
        <time>2024-01-26T16:14:44Z</time>
      </trkpt>
      <trkpt lat="48.70628" lon="7.16491">
        <ele>349.4</ele>
        <time>2024-01-26T16:14:52Z</time>
      </trkpt>
      <trkpt lat="48.70616" lon="7.16514">
        <ele>350.6</ele>
        <time>2024-01-26T16:15:00Z</time>
      </trkpt>
      <trkpt lat="48.70603" lon="7.16536">
        <ele>351.6</ele>
        <time>2024-01-26T16:15:08Z</time>
      </trkpt>
      <trkpt lat="48.70589" lon="7.16559">
        <ele>352.5</ele>
        <time>2024-01-26T16:15:16Z</time>
      </trkpt>
      <trkpt lat="48.70576" lon="7.1658">
        <ele>353.5</ele>
        <time>2024-01-26T16:15:23Z</time>
      </trkpt>
      <trkpt lat="48.70563" lon="7.16601">
        <ele>354.4</ele>
        <time>2024-01-26T16:15:30Z</time>
      </trkpt>
      <trkpt lat="48.7055" lon="7.1662">
        <ele>355.2</ele>
        <time>2024-01-26T16:15:37Z</time>
      </trkpt>
      <trkpt lat="48.70538" lon="7.16641">
        <ele>355.9</ele>
        <time>2024-01-26T16:15:44Z</time>
      </trkpt>
      <trkpt lat="48.70526" lon="7.16665">
        <ele>356.5</ele>
        <time>2024-01-26T16:15:51Z</time>
      </trkpt>
      <trkpt lat="48.70514" lon="7.16686">
        <ele>356.7</ele>
        <time>2024-01-26T16:15:58Z</time>
      </trkpt>
      <trkpt lat="48.70503" lon="7.16711">
        <ele>356.3</ele>
        <time>2024-01-26T16:16:05Z</time>
      </trkpt>
      <trkpt lat="48.7049" lon="7.16735">
        <ele>355.7</ele>
        <time>2024-01-26T16:16:12Z</time>
      </trkpt>
      <trkpt lat="48.70476" lon="7.16756">
        <ele>354.9</ele>
        <time>2024-01-26T16:16:19Z</time>
      </trkpt>
      <trkpt lat="48.70461" lon="7.16777">
        <ele>354</ele>
        <time>2024-01-26T16:16:26Z</time>
      </trkpt>
      <trkpt lat="48.70447" lon="7.16797">
        <ele>353.5</ele>
        <time>2024-01-26T16:16:32Z</time>
      </trkpt>
      <trkpt lat="48.70434" lon="7.16816">
        <ele>353.3</ele>
        <time>2024-01-26T16:16:38Z</time>
      </trkpt>
      <trkpt lat="48.70421" lon="7.16835">
        <ele>353.4</ele>
        <time>2024-01-26T16:16:44Z</time>
      </trkpt>
      <trkpt lat="48.70405" lon="7.16852">
        <ele>353.7</ele>
        <time>2024-01-26T16:16:51Z</time>
      </trkpt>
      <trkpt lat="48.7039" lon="7.16867">
        <ele>354</ele>
        <time>2024-01-26T16:16:58Z</time>
      </trkpt>
      <trkpt lat="48.70373" lon="7.16879">
        <ele>354.5</ele>
        <time>2024-01-26T16:17:05Z</time>
      </trkpt>
      <trkpt lat="48.70354" lon="7.16889">
        <ele>355.4</ele>
        <time>2024-01-26T16:17:13Z</time>
      </trkpt>
      <trkpt lat="48.70337" lon="7.169">
        <ele>356.7</ele>
        <time>2024-01-26T16:17:21Z</time>
      </trkpt>
      <trkpt lat="48.70319" lon="7.1691">
        <ele>358.3</ele>
        <time>2024-01-26T16:17:29Z</time>
      </trkpt>
      <trkpt lat="48.70302" lon="7.16921">
        <ele>359.8</ele>
        <time>2024-01-26T16:17:37Z</time>
      </trkpt>
      <trkpt lat="48.70285" lon="7.16932">
        <ele>361.2</ele>
        <time>2024-01-26T16:17:45Z</time>
      </trkpt>
      <trkpt lat="48.70268" lon="7.16944">
        <ele>362.5</ele>
        <time>2024-01-26T16:17:53Z</time>
      </trkpt>
      <trkpt lat="48.70251" lon="7.16958">
        <ele>363.6</ele>
        <time>2024-01-26T16:18:01Z</time>
      </trkpt>
      <trkpt lat="48.70234" lon="7.16971">
        <ele>364.6</ele>
        <time>2024-01-26T16:18:09Z</time>
      </trkpt>
      <trkpt lat="48.70217" lon="7.16985">
        <ele>365.5</ele>
        <time>2024-01-26T16:18:17Z</time>
      </trkpt>
      <trkpt lat="48.702" lon="7.16998">
        <ele>366.5</ele>
        <time>2024-01-26T16:18:25Z</time>
      </trkpt>
      <trkpt lat="48.70182" lon="7.17012">
        <ele>367.9</ele>
        <time>2024-01-26T16:18:33Z</time>
      </trkpt>
      <trkpt lat="48.70164" lon="7.17024">
        <ele>369.2</ele>
        <time>2024-01-26T16:18:42Z</time>
      </trkpt>
      <trkpt lat="48.70146" lon="7.17037">
        <ele>370.9</ele>
        <time>2024-01-26T16:18:51Z</time>
      </trkpt>
      <trkpt lat="48.70136" lon="7.17062">
        <ele>372.6</ele>
        <time>2024-01-26T16:18:59Z</time>
      </trkpt>
      <trkpt lat="48.70122" lon="7.17085">
        <ele>374</ele>
        <time>2024-01-26T16:19:07Z</time>
      </trkpt>
      <trkpt lat="48.70105" lon="7.17101">
        <ele>375.5</ele>
        <time>2024-01-26T16:19:15Z</time>
      </trkpt>
      <trkpt lat="48.70089" lon="7.17118">
        <ele>377</ele>
        <time>2024-01-26T16:19:23Z</time>
      </trkpt>
      <trkpt lat="48.70073" lon="7.17133">
        <ele>378.4</ele>
        <time>2024-01-26T16:19:31Z</time>
      </trkpt>
      <trkpt lat="48.70056" lon="7.17149">
        <ele>380</ele>
        <time>2024-01-26T16:19:40Z</time>
      </trkpt>
      <trkpt lat="48.70039" lon="7.17165">
        <ele>381.7</ele>
        <time>2024-01-26T16:19:49Z</time>
      </trkpt>
      <trkpt lat="48.70024" lon="7.1718">
        <ele>383.2</ele>
        <time>2024-01-26T16:19:57Z</time>
      </trkpt>
      <trkpt lat="48.70009" lon="7.17201">
        <ele>384.7</ele>
        <time>2024-01-26T16:20:05Z</time>
      </trkpt>
      <trkpt lat="48.69994" lon="7.1722">
        <ele>386.3</ele>
        <time>2024-01-26T16:20:14Z</time>
      </trkpt>
      <trkpt lat="48.69977" lon="7.17235">
        <ele>387.7</ele>
        <time>2024-01-26T16:20:23Z</time>
      </trkpt>
      <trkpt lat="48.69963" lon="7.17255">
        <ele>388.9</ele>
        <time>2024-01-26T16:20:30Z</time>
      </trkpt>
      <trkpt lat="48.69949" lon="7.17277">
        <ele>390</ele>
        <time>2024-01-26T16:20:38Z</time>
      </trkpt>
      <trkpt lat="48.69935" lon="7.17293">
        <ele>390.8</ele>
        <time>2024-01-26T16:20:45Z</time>
      </trkpt>
      <trkpt lat="48.69921" lon="7.1731">
        <ele>391.6</ele>
        <time>2024-01-26T16:20:52Z</time>
      </trkpt>
      <trkpt lat="48.69907" lon="7.17329">
        <ele>392.4</ele>
        <time>2024-01-26T16:20:59Z</time>
      </trkpt>
      <trkpt lat="48.69895" lon="7.17351">
        <ele>393.5</ele>
        <time>2024-01-26T16:21:06Z</time>
      </trkpt>
      <trkpt lat="48.69883" lon="7.17371">
        <ele>394.6</ele>
        <time>2024-01-26T16:21:12Z</time>
      </trkpt>
      <trkpt lat="48.69877" lon="7.17381">
        <ele>395.1</ele>
        <time>2024-01-26T16:21:45Z</time>
      </trkpt>
      <trkpt lat="48.69869" lon="7.17407">
        <ele>395.8</ele>
        <time>2024-01-26T16:21:50Z</time>
      </trkpt>
      <trkpt lat="48.69876" lon="7.17436">
        <ele>395.6</ele>
        <time>2024-01-26T16:21:56Z</time>
      </trkpt>
      <trkpt lat="48.69886" lon="7.17462">
        <ele>395.2</ele>
        <time>2024-01-26T16:22:02Z</time>
      </trkpt>
      <trkpt lat="48.69896" lon="7.17488">
        <ele>394.9</ele>
        <time>2024-01-26T16:22:08Z</time>
      </trkpt>
      <trkpt lat="48.69907" lon="7.17514">
        <ele>394.5</ele>
        <time>2024-01-26T16:22:14Z</time>
      </trkpt>
      <trkpt lat="48.69917" lon="7.17539">
        <ele>394.1</ele>
        <time>2024-01-26T16:22:20Z</time>
      </trkpt>
      <trkpt lat="48.69927" lon="7.17563">
        <ele>393.6</ele>
        <time>2024-01-26T16:22:26Z</time>
      </trkpt>
      <trkpt lat="48.69938" lon="7.17589">
        <ele>393</ele>
        <time>2024-01-26T16:22:33Z</time>
      </trkpt>
      <trkpt lat="48.69949" lon="7.17614">
        <ele>392.5</ele>
        <time>2024-01-26T16:22:40Z</time>
      </trkpt>
      <trkpt lat="48.69961" lon="7.17639">
        <ele>391.8</ele>
        <time>2024-01-26T16:22:47Z</time>
      </trkpt>
      <trkpt lat="48.69971" lon="7.17664">
        <ele>391.1</ele>
        <time>2024-01-26T16:22:54Z</time>
      </trkpt>
      <trkpt lat="48.69981" lon="7.17689">
        <ele>390.3</ele>
        <time>2024-01-26T16:23:01Z</time>
      </trkpt>
      <trkpt lat="48.69989" lon="7.17714">
        <ele>389.7</ele>
        <time>2024-01-26T16:23:09Z</time>
      </trkpt>
      <trkpt lat="48.69992" lon="7.17739">
        <ele>389.2</ele>
        <time>2024-01-26T16:23:19Z</time>
      </trkpt>
      <trkpt lat="48.69995" lon="7.17769">
        <ele>388.3</ele>
        <time>2024-01-26T16:23:27Z</time>
      </trkpt>
      <trkpt lat="48.69997" lon="7.17799">
        <ele>387.3</ele>
        <time>2024-01-26T16:23:34Z</time>
      </trkpt>
      <trkpt lat="48.7" lon="7.17826">
        <ele>386.9</ele>
        <time>2024-01-26T16:23:40Z</time>
      </trkpt>
      <trkpt lat="48.70008" lon="7.17852">
        <ele>386.7</ele>
        <time>2024-01-26T16:23:46Z</time>
      </trkpt>
      <trkpt lat="48.70016" lon="7.17881">
        <ele>386.3</ele>
        <time>2024-01-26T16:23:53Z</time>
      </trkpt>
      <trkpt lat="48.70027" lon="7.17904">
        <ele>386.1</ele>
        <time>2024-01-26T16:23:59Z</time>
      </trkpt>
      <trkpt lat="48.70037" lon="7.17929">
        <ele>386.1</ele>
        <time>2024-01-26T16:24:06Z</time>
      </trkpt>
      <trkpt lat="48.70044" lon="7.17956">
        <ele>386.1</ele>
        <time>2024-01-26T16:24:13Z</time>
      </trkpt>
      <trkpt lat="48.70051" lon="7.17985">
        <ele>386</ele>
        <time>2024-01-26T16:24:20Z</time>
      </trkpt>
      <trkpt lat="48.70049" lon="7.18014">
        <ele>385.9</ele>
        <time>2024-01-26T16:24:27Z</time>
      </trkpt>
      <trkpt lat="48.70055" lon="7.1804">
        <ele>386</ele>
        <time>2024-01-26T16:24:34Z</time>
      </trkpt>
      <trkpt lat="48.70064" lon="7.18067">
        <ele>386</ele>
        <time>2024-01-26T16:24:42Z</time>
      </trkpt>
      <trkpt lat="48.70073" lon="7.18095">
        <ele>386</ele>
        <time>2024-01-26T16:24:50Z</time>
      </trkpt>
      <trkpt lat="48.70082" lon="7.18121">
        <ele>386</ele>
        <time>2024-01-26T16:24:58Z</time>
      </trkpt>
      <trkpt lat="48.7009" lon="7.18146">
        <ele>386</ele>
        <time>2024-01-26T16:25:06Z</time>
      </trkpt>
      <trkpt lat="48.70097" lon="7.18174">
        <ele>386</ele>
        <time>2024-01-26T16:25:14Z</time>
      </trkpt>
      <trkpt lat="48.70099" lon="7.18194">
        <ele>386</ele>
        <time>2024-01-26T16:25:23Z</time>
      </trkpt>
      <trkpt lat="48.701" lon="7.18198">
        <ele>386</ele>
        <time>2024-01-26T16:25:26Z</time>
      </trkpt>
      <trkpt lat="48.70105" lon="7.18217">
        <ele>385.9</ele>
        <time>2024-01-26T16:25:37Z</time>
      </trkpt>
      <trkpt lat="48.701" lon="7.18194">
        <ele>385.8</ele>
        <time>2024-01-26T16:25:44Z</time>
      </trkpt>
      <trkpt lat="48.70118" lon="7.18181">
        <ele>385.1</ele>
        <time>2024-01-26T16:25:51Z</time>
      </trkpt>
      <trkpt lat="48.70135" lon="7.18172">
        <ele>383.8</ele>
        <time>2024-01-26T16:25:57Z</time>
      </trkpt>
      <trkpt lat="48.70153" lon="7.18162">
        <ele>381</ele>
        <time>2024-01-26T16:26:03Z</time>
      </trkpt>
      <trkpt lat="48.70172" lon="7.18149">
        <ele>377.6</ele>
        <time>2024-01-26T16:26:09Z</time>
      </trkpt>
      <trkpt lat="48.70191" lon="7.18138">
        <ele>373.9</ele>
        <time>2024-01-26T16:26:15Z</time>
      </trkpt>
      <trkpt lat="48.70197" lon="7.18142">
        <ele>373</ele>
        <time>2024-01-26T16:26:16Z</time>
      </trkpt>
      <trkpt lat="48.70208" lon="7.18165">
        <ele>372.3</ele>
        <time>2024-01-26T16:26:25Z</time>
      </trkpt>
      <trkpt lat="48.70219" lon="7.18187">
        <ele>371.7</ele>
        <time>2024-01-26T16:26:34Z</time>
      </trkpt>
      <trkpt lat="48.7023" lon="7.1821">
        <ele>370.4</ele>
        <time>2024-01-26T16:26:42Z</time>
      </trkpt>
      <trkpt lat="48.70241" lon="7.18233">
        <ele>369.1</ele>
        <time>2024-01-26T16:26:52Z</time>
      </trkpt>
      <trkpt lat="48.70246" lon="7.18261">
        <ele>369.3</ele>
        <time>2024-01-26T16:27:03Z</time>
      </trkpt>
      <trkpt lat="48.70257" lon="7.18286">
        <ele>367.3</ele>
        <time>2024-01-26T16:27:09Z</time>
      </trkpt>
      <trkpt lat="48.70265" lon="7.18303">
        <ele>366</ele>
        <time>2024-01-26T16:27:17Z</time>
      </trkpt>
      <trkpt lat="48.70252" lon="7.18282">
        <ele>367.9</ele>
        <time>2024-01-26T16:27:47Z</time>
      </trkpt>
      <trkpt lat="48.70241" lon="7.18258">
        <ele>369.9</ele>
        <time>2024-01-26T16:28:04Z</time>
      </trkpt>
      <trkpt lat="48.70233" lon="7.18233">
        <ele>370.7</ele>
        <time>2024-01-26T16:28:16Z</time>
      </trkpt>
      <trkpt lat="48.70222" lon="7.18209">
        <ele>372</ele>
        <time>2024-01-26T16:28:27Z</time>
      </trkpt>
      <trkpt lat="48.70214" lon="7.18191">
        <ele>373</ele>
        <time>2024-01-26T16:28:35Z</time>
      </trkpt>
      <trkpt lat="48.70212" lon="7.18187">
        <ele>372.8</ele>
        <time>2024-01-26T16:28:38Z</time>
      </trkpt>
      <trkpt lat="48.70205" lon="7.18161">
        <ele>372.6</ele>
        <time>2024-01-26T16:28:49Z</time>
      </trkpt>
      <trkpt lat="48.70195" lon="7.18146">
        <ele>373.4</ele>
        <time>2024-01-26T16:28:56Z</time>
      </trkpt>
      <trkpt lat="48.70178" lon="7.18156">
        <ele>376.8</ele>
        <time>2024-01-26T16:29:06Z</time>
      </trkpt>
      <trkpt lat="48.7016" lon="7.18165">
        <ele>380.6</ele>
        <time>2024-01-26T16:29:16Z</time>
      </trkpt>
      <trkpt lat="48.70142" lon="7.18171">
        <ele>383</ele>
        <time>2024-01-26T16:29:24Z</time>
      </trkpt>
      <trkpt lat="48.70125" lon="7.18182">
        <ele>384.9</ele>
        <time>2024-01-26T16:29:34Z</time>
      </trkpt>
      <trkpt lat="48.70111" lon="7.18191">
        <ele>385.7</ele>
        <time>2024-01-26T16:29:41Z</time>
      </trkpt>
      <trkpt lat="48.70109" lon="7.18219">
        <ele>385.5</ele>
        <time>2024-01-26T16:29:52Z</time>
      </trkpt>
      <trkpt lat="48.70109" lon="7.18235">
        <ele>385.5</ele>
        <time>2024-01-26T16:29:57Z</time>
      </trkpt>
      <trkpt lat="48.70112" lon="7.18264">
        <ele>385.5</ele>
        <time>2024-01-26T16:30:02Z</time>
      </trkpt>
      <trkpt lat="48.70115" lon="7.18292">
        <ele>385.5</ele>
        <time>2024-01-26T16:30:06Z</time>
      </trkpt>
      <trkpt lat="48.70117" lon="7.1832">
        <ele>385.6</ele>
        <time>2024-01-26T16:30:10Z</time>
      </trkpt>
      <trkpt lat="48.70122" lon="7.18352">
        <ele>385.7</ele>
        <time>2024-01-26T16:30:15Z</time>
      </trkpt>
      <trkpt lat="48.70127" lon="7.18384">
        <ele>385.9</ele>
        <time>2024-01-26T16:30:20Z</time>
      </trkpt>
      <trkpt lat="48.70133" lon="7.1841">
        <ele>386</ele>
        <time>2024-01-26T16:30:24Z</time>
      </trkpt>
      <trkpt lat="48.70138" lon="7.18438">
        <ele>386.3</ele>
        <time>2024-01-26T16:30:28Z</time>
      </trkpt>
      <trkpt lat="48.70145" lon="7.18469">
        <ele>386.5</ele>
        <time>2024-01-26T16:30:33Z</time>
      </trkpt>
      <trkpt lat="48.70152" lon="7.18497">
        <ele>386.6</ele>
        <time>2024-01-26T16:30:37Z</time>
      </trkpt>
      <trkpt lat="48.7016" lon="7.18523">
        <ele>386.5</ele>
        <time>2024-01-26T16:30:41Z</time>
      </trkpt>
      <trkpt lat="48.70162" lon="7.1853">
        <ele>386.5</ele>
        <time>2024-01-26T16:30:42Z</time>
      </trkpt>
      <trkpt lat="48.70171" lon="7.18555">
        <ele>386.2</ele>
        <time>2024-01-26T16:30:46Z</time>
      </trkpt>
      <trkpt lat="48.70181" lon="7.1858">
        <ele>385.8</ele>
        <time>2024-01-26T16:30:52Z</time>
      </trkpt>
      <trkpt lat="48.70191" lon="7.18601">
        <ele>385.6</ele>
        <time>2024-01-26T16:30:58Z</time>
      </trkpt>
      <trkpt lat="48.70201" lon="7.18631">
        <ele>385.7</ele>
        <time>2024-01-26T16:31:03Z</time>
      </trkpt>
      <trkpt lat="48.70208" lon="7.18656">
        <ele>386.2</ele>
        <time>2024-01-26T16:31:07Z</time>
      </trkpt>
      <trkpt lat="48.7021" lon="7.18669">
        <ele>386.5</ele>
        <time>2024-01-26T16:31:08Z</time>
      </trkpt>
      <trkpt lat="48.7021" lon="7.18676">
        <ele>386.7</ele>
        <time>2024-01-26T16:31:10Z</time>
      </trkpt>
      <trkpt lat="48.70209" lon="7.1869">
        <ele>386.9</ele>
        <time>2024-01-26T16:31:12Z</time>
      </trkpt>
      <trkpt lat="48.70206" lon="7.18723">
        <ele>387.9</ele>
        <time>2024-01-26T16:31:17Z</time>
      </trkpt>
      <trkpt lat="48.70201" lon="7.18755">
        <ele>388.8</ele>
        <time>2024-01-26T16:31:22Z</time>
      </trkpt>
      <trkpt lat="48.70199" lon="7.18787">
        <ele>389.5</ele>
        <time>2024-01-26T16:31:27Z</time>
      </trkpt>
      <trkpt lat="48.70195" lon="7.18819">
        <ele>390.1</ele>
        <time>2024-01-26T16:31:32Z</time>
      </trkpt>
      <trkpt lat="48.70195" lon="7.18847">
        <ele>390.5</ele>
        <time>2024-01-26T16:31:36Z</time>
      </trkpt>
      <trkpt lat="48.70197" lon="7.18861">
        <ele>390.7</ele>
        <time>2024-01-26T16:31:37Z</time>
      </trkpt>
      <trkpt lat="48.70198" lon="7.18867">
        <ele>390.8</ele>
        <time>2024-01-26T16:31:39Z</time>
      </trkpt>
      <trkpt lat="48.70206" lon="7.18893">
        <ele>391.2</ele>
        <time>2024-01-26T16:31:43Z</time>
      </trkpt>
      <trkpt lat="48.70211" lon="7.18923">
        <ele>391.6</ele>
        <time>2024-01-26T16:31:48Z</time>
      </trkpt>
      <trkpt lat="48.70212" lon="7.18932">
        <ele>391.7</ele>
        <time>2024-01-26T16:31:50Z</time>
      </trkpt>
      <trkpt lat="48.70216" lon="7.1896">
        <ele>392</ele>
        <time>2024-01-26T16:31:57Z</time>
      </trkpt>
      <trkpt lat="48.70216" lon="7.1897">
        <ele>392</ele>
        <time>2024-01-26T16:31:59Z</time>
      </trkpt>
      <trkpt lat="48.70217" lon="7.19001">
        <ele>392.1</ele>
        <time>2024-01-26T16:32:04Z</time>
      </trkpt>
      <trkpt lat="48.70219" lon="7.19014">
        <ele>392.1</ele>
        <time>2024-01-26T16:32:05Z</time>
      </trkpt>
      <trkpt lat="48.70223" lon="7.19044">
        <ele>392.3</ele>
        <time>2024-01-26T16:32:11Z</time>
      </trkpt>
      <trkpt lat="48.70224" lon="7.1905">
        <ele>392.3</ele>
        <time>2024-01-26T16:32:12Z</time>
      </trkpt>
      <trkpt lat="48.70228" lon="7.19062">
        <ele>392.2</ele>
        <time>2024-01-26T16:32:14Z</time>
      </trkpt>
      <trkpt lat="48.70236" lon="7.19088">
        <ele>392.2</ele>
        <time>2024-01-26T16:32:18Z</time>
      </trkpt>
      <trkpt lat="48.70238" lon="7.19102">
        <ele>392.2</ele>
        <time>2024-01-26T16:32:20Z</time>
      </trkpt>
      <trkpt lat="48.70239" lon="7.19116">
        <ele>392.3</ele>
        <time>2024-01-26T16:32:22Z</time>
      </trkpt>
      <trkpt lat="48.70236" lon="7.19129">
        <ele>392.3</ele>
        <time>2024-01-26T16:32:24Z</time>
      </trkpt>
      <trkpt lat="48.70233" lon="7.19159">
        <ele>392.5</ele>
        <time>2024-01-26T16:32:29Z</time>
      </trkpt>
      <trkpt lat="48.70225" lon="7.1919">
        <ele>392.6</ele>
        <time>2024-01-26T16:32:34Z</time>
      </trkpt>
      <trkpt lat="48.70216" lon="7.19219">
        <ele>392.3</ele>
        <time>2024-01-26T16:32:39Z</time>
      </trkpt>
      <trkpt lat="48.70211" lon="7.19243">
        <ele>391.9</ele>
        <time>2024-01-26T16:32:43Z</time>
      </trkpt>
      <trkpt lat="48.70211" lon="7.19249">
        <ele>391.8</ele>
        <time>2024-01-26T16:32:44Z</time>
      </trkpt>
      <trkpt lat="48.70209" lon="7.19257">
        <ele>391.6</ele>
        <time>2024-01-26T16:32:45Z</time>
      </trkpt>
      <trkpt lat="48.70203" lon="7.19287">
        <ele>390.8</ele>
        <time>2024-01-26T16:32:50Z</time>
      </trkpt>
      <trkpt lat="48.70202" lon="7.19297">
        <ele>390.4</ele>
        <time>2024-01-26T16:32:51Z</time>
      </trkpt>
      <trkpt lat="48.70203" lon="7.19302">
        <ele>390.1</ele>
        <time>2024-01-26T16:32:53Z</time>
      </trkpt>
      <trkpt lat="48.70204" lon="7.1932">
        <ele>389.3</ele>
        <time>2024-01-26T16:32:57Z</time>
      </trkpt>
      <trkpt lat="48.70205" lon="7.19333">
        <ele>388.7</ele>
        <time>2024-01-26T16:33:00Z</time>
      </trkpt>
      <trkpt lat="48.70211" lon="7.19371">
        <ele>387</ele>
        <time>2024-01-26T16:33:05Z</time>
      </trkpt>
      <trkpt lat="48.70217" lon="7.19383">
        <ele>386.5</ele>
        <time>2024-01-26T16:33:08Z</time>
      </trkpt>
      <trkpt lat="48.70229" lon="7.19405">
        <ele>385.5</ele>
        <time>2024-01-26T16:33:12Z</time>
      </trkpt>
      <trkpt lat="48.70241" lon="7.19429">
        <ele>384.8</ele>
        <time>2024-01-26T16:33:16Z</time>
      </trkpt>
      <trkpt lat="48.70254" lon="7.19455">
        <ele>384.2</ele>
        <time>2024-01-26T16:33:21Z</time>
      </trkpt>
      <trkpt lat="48.70264" lon="7.19476">
        <ele>383.9</ele>
        <time>2024-01-26T16:33:25Z</time>
      </trkpt>
      <trkpt lat="48.70274" lon="7.19505">
        <ele>383.6</ele>
        <time>2024-01-26T16:33:30Z</time>
      </trkpt>
      <trkpt lat="48.70287" lon="7.19532">
        <ele>383.3</ele>
        <time>2024-01-26T16:33:35Z</time>
      </trkpt>
      <trkpt lat="48.70299" lon="7.19556">
        <ele>383.3</ele>
        <time>2024-01-26T16:33:40Z</time>
      </trkpt>
      <trkpt lat="48.70313" lon="7.19579">
        <ele>383.5</ele>
        <time>2024-01-26T16:33:45Z</time>
      </trkpt>
      <trkpt lat="48.70318" lon="7.19588">
        <ele>383.6</ele>
        <time>2024-01-26T16:33:47Z</time>
      </trkpt>
      <trkpt lat="48.7033" lon="7.19611">
        <ele>383.7</ele>
        <time>2024-01-26T16:33:52Z</time>
      </trkpt>
      <trkpt lat="48.70341" lon="7.19635">
        <ele>384</ele>
        <time>2024-01-26T16:33:59Z</time>
      </trkpt>
      <trkpt lat="48.70345" lon="7.19644">
        <ele>384</ele>
        <time>2024-01-26T16:34:01Z</time>
      </trkpt>
      <trkpt lat="48.70354" lon="7.19674">
        <ele>383.8</ele>
        <time>2024-01-26T16:34:06Z</time>
      </trkpt>
      <trkpt lat="48.70363" lon="7.19703">
        <ele>383.4</ele>
        <time>2024-01-26T16:34:11Z</time>
      </trkpt>
      <trkpt lat="48.70368" lon="7.19719">
        <ele>383.2</ele>
        <time>2024-01-26T16:34:14Z</time>
      </trkpt>
      <trkpt lat="48.70379" lon="7.19744">
        <ele>382.8</ele>
        <time>2024-01-26T16:34:18Z</time>
      </trkpt>
      <trkpt lat="48.70387" lon="7.19771">
        <ele>382.4</ele>
        <time>2024-01-26T16:34:22Z</time>
      </trkpt>
      <trkpt lat="48.70393" lon="7.19798">
        <ele>381.7</ele>
        <time>2024-01-26T16:34:26Z</time>
      </trkpt>
      <trkpt lat="48.70394" lon="7.19811">
        <ele>381.4</ele>
        <time>2024-01-26T16:34:27Z</time>
      </trkpt>
      <trkpt lat="48.70396" lon="7.19824">
        <ele>381.1</ele>
        <time>2024-01-26T16:34:30Z</time>
      </trkpt>
      <trkpt lat="48.70405" lon="7.19855">
        <ele>380.9</ele>
        <time>2024-01-26T16:34:35Z</time>
      </trkpt>
      <trkpt lat="48.70413" lon="7.19881">
        <ele>380.8</ele>
        <time>2024-01-26T16:34:39Z</time>
      </trkpt>
      <trkpt lat="48.70421" lon="7.19907">
        <ele>380.8</ele>
        <time>2024-01-26T16:34:43Z</time>
      </trkpt>
      <trkpt lat="48.70426" lon="7.19928">
        <ele>380.9</ele>
        <time>2024-01-26T16:34:46Z</time>
      </trkpt>
      <trkpt lat="48.70433" lon="7.19958">
        <ele>381</ele>
        <time>2024-01-26T16:34:51Z</time>
      </trkpt>
      <trkpt lat="48.70436" lon="7.19985">
        <ele>380.9</ele>
        <time>2024-01-26T16:34:57Z</time>
      </trkpt>
      <trkpt lat="48.7044" lon="7.20007">
        <ele>380.7</ele>
        <time>2024-01-26T16:35:02Z</time>
      </trkpt>
      <trkpt lat="48.70443" lon="7.20036">
        <ele>380.3</ele>
        <time>2024-01-26T16:35:07Z</time>
      </trkpt>
      <trkpt lat="48.70447" lon="7.20066">
        <ele>380</ele>
        <time>2024-01-26T16:35:12Z</time>
      </trkpt>
      <trkpt lat="48.70456" lon="7.20095">
        <ele>379.9</ele>
        <time>2024-01-26T16:35:17Z</time>
      </trkpt>
      <trkpt lat="48.70468" lon="7.20118">
        <ele>380</ele>
        <time>2024-01-26T16:35:21Z</time>
      </trkpt>
      <trkpt lat="48.70478" lon="7.20142">
        <ele>380.1</ele>
        <time>2024-01-26T16:35:25Z</time>
      </trkpt>
      <trkpt lat="48.7049" lon="7.20167">
        <ele>380.3</ele>
        <time>2024-01-26T16:35:29Z</time>
      </trkpt>
      <trkpt lat="48.705" lon="7.20191">
        <ele>380.6</ele>
        <time>2024-01-26T16:35:33Z</time>
      </trkpt>
      <trkpt lat="48.7051" lon="7.20216">
        <ele>381</ele>
        <time>2024-01-26T16:35:37Z</time>
      </trkpt>
      <trkpt lat="48.70512" lon="7.20222">
        <ele>381</ele>
        <time>2024-01-26T16:35:38Z</time>
      </trkpt>
      <trkpt lat="48.7052" lon="7.20254">
        <ele>380.8</ele>
        <time>2024-01-26T16:35:43Z</time>
      </trkpt>
      <trkpt lat="48.70528" lon="7.20281">
        <ele>379.9</ele>
        <time>2024-01-26T16:35:47Z</time>
      </trkpt>
      <trkpt lat="48.70532" lon="7.20306">
        <ele>378.6</ele>
        <time>2024-01-26T16:35:51Z</time>
      </trkpt>
      <trkpt lat="48.70535" lon="7.20334">
        <ele>377.3</ele>
        <time>2024-01-26T16:35:56Z</time>
      </trkpt>
      <trkpt lat="48.70539" lon="7.20354">
        <ele>376.6</ele>
        <time>2024-01-26T16:36:00Z</time>
      </trkpt>
      <trkpt lat="48.70539" lon="7.20363">
        <ele>376.4</ele>
        <time>2024-01-26T16:36:02Z</time>
      </trkpt>
      <trkpt lat="48.70538" lon="7.20373">
        <ele>376</ele>
        <time>2024-01-26T16:36:03Z</time>
      </trkpt>
      <trkpt lat="48.70536" lon="7.20405">
        <ele>375.2</ele>
        <time>2024-01-26T16:36:09Z</time>
      </trkpt>
      <trkpt lat="48.70537" lon="7.20411">
        <ele>375.1</ele>
        <time>2024-01-26T16:36:10Z</time>
      </trkpt>
      <trkpt lat="48.70538" lon="7.20443">
        <ele>374.6</ele>
        <time>2024-01-26T16:36:15Z</time>
      </trkpt>
      <trkpt lat="48.70538" lon="7.2047">
        <ele>374.3</ele>
        <time>2024-01-26T16:36:19Z</time>
      </trkpt>
      <trkpt lat="48.7054" lon="7.20499">
        <ele>373.7</ele>
        <time>2024-01-26T16:36:23Z</time>
      </trkpt>
      <trkpt lat="48.70542" lon="7.20526">
        <ele>373</ele>
        <time>2024-01-26T16:36:27Z</time>
      </trkpt>
      <trkpt lat="48.70544" lon="7.20555">
        <ele>372.5</ele>
        <time>2024-01-26T16:36:31Z</time>
      </trkpt>
      <trkpt lat="48.70547" lon="7.20583">
        <ele>372.3</ele>
        <time>2024-01-26T16:36:35Z</time>
      </trkpt>
      <trkpt lat="48.70547" lon="7.2061">
        <ele>372</ele>
        <time>2024-01-26T16:36:39Z</time>
      </trkpt>
      <trkpt lat="48.70546" lon="7.20639">
        <ele>371.4</ele>
        <time>2024-01-26T16:36:43Z</time>
      </trkpt>
      <trkpt lat="48.70547" lon="7.20669">
        <ele>370.5</ele>
        <time>2024-01-26T16:36:47Z</time>
      </trkpt>
      <trkpt lat="48.70548" lon="7.20684">
        <ele>370.2</ele>
        <time>2024-01-26T16:36:49Z</time>
      </trkpt>
      <trkpt lat="48.70549" lon="7.20699">
        <ele>370</ele>
        <time>2024-01-26T16:36:51Z</time>
      </trkpt>
      <trkpt lat="48.70548" lon="7.20726">
        <ele>369.9</ele>
        <time>2024-01-26T16:36:56Z</time>
      </trkpt>
      <trkpt lat="48.70548" lon="7.20741">
        <ele>369.9</ele>
        <time>2024-01-26T16:37:02Z</time>
      </trkpt>
      <trkpt lat="48.70549" lon="7.20723">
        <ele>369.9</ele>
        <time>2024-01-26T16:37:06Z</time>
      </trkpt>
      <trkpt lat="48.70548" lon="7.20693">
        <ele>370</ele>
        <time>2024-01-26T16:37:10Z</time>
      </trkpt>
      <trkpt lat="48.70545" lon="7.2066">
        <ele>370.7</ele>
        <time>2024-01-26T16:37:15Z</time>
      </trkpt>
      <trkpt lat="48.70544" lon="7.20643">
        <ele>371.3</ele>
        <time>2024-01-26T16:37:18Z</time>
      </trkpt>
      <trkpt lat="48.70542" lon="7.20612">
        <ele>372</ele>
        <time>2024-01-26T16:37:23Z</time>
      </trkpt>
      <trkpt lat="48.70541" lon="7.20579">
        <ele>372.3</ele>
        <time>2024-01-26T16:37:28Z</time>
      </trkpt>
      <trkpt lat="48.70542" lon="7.20546">
        <ele>372.6</ele>
        <time>2024-01-26T16:37:33Z</time>
      </trkpt>
      <trkpt lat="48.70541" lon="7.20516">
        <ele>373.2</ele>
        <time>2024-01-26T16:37:38Z</time>
      </trkpt>
      <trkpt lat="48.70541" lon="7.20504">
        <ele>373.5</ele>
        <time>2024-01-26T16:37:40Z</time>
      </trkpt>
      <trkpt lat="48.70537" lon="7.20473">
        <ele>374.2</ele>
        <time>2024-01-26T16:37:45Z</time>
      </trkpt>
      <trkpt lat="48.70532" lon="7.20445">
        <ele>374.6</ele>
        <time>2024-01-26T16:37:50Z</time>
      </trkpt>
      <trkpt lat="48.70531" lon="7.20439">
        <ele>374.7</ele>
        <time>2024-01-26T16:37:51Z</time>
      </trkpt>
      <trkpt lat="48.70529" lon="7.20413">
        <ele>375</ele>
        <time>2024-01-26T16:37:56Z</time>
      </trkpt>
      <trkpt lat="48.70534" lon="7.20383">
        <ele>375.7</ele>
        <time>2024-01-26T16:38:05Z</time>
      </trkpt>
      <trkpt lat="48.70536" lon="7.20374">
        <ele>376</ele>
        <time>2024-01-26T16:38:07Z</time>
      </trkpt>
      <trkpt lat="48.70536" lon="7.20345">
        <ele>376.8</ele>
        <time>2024-01-26T16:38:12Z</time>
      </trkpt>
      <trkpt lat="48.70531" lon="7.20315">
        <ele>378</ele>
        <time>2024-01-26T16:38:17Z</time>
      </trkpt>
      <trkpt lat="48.70528" lon="7.20304">
        <ele>378.6</ele>
        <time>2024-01-26T16:38:19Z</time>
      </trkpt>
      <trkpt lat="48.7052" lon="7.20283">
        <ele>379.7</ele>
        <time>2024-01-26T16:38:23Z</time>
      </trkpt>
      <trkpt lat="48.70509" lon="7.20254">
        <ele>380.7</ele>
        <time>2024-01-26T16:38:28Z</time>
      </trkpt>
      <trkpt lat="48.70505" lon="7.20242">
        <ele>381</ele>
        <time>2024-01-26T16:38:30Z</time>
      </trkpt>
      <trkpt lat="48.70497" lon="7.20217">
        <ele>381</ele>
        <time>2024-01-26T16:38:34Z</time>
      </trkpt>
      <trkpt lat="48.70488" lon="7.20191">
        <ele>380.6</ele>
        <time>2024-01-26T16:38:38Z</time>
      </trkpt>
      <trkpt lat="48.70479" lon="7.20166">
        <ele>380.4</ele>
        <time>2024-01-26T16:38:42Z</time>
      </trkpt>
      <trkpt lat="48.70469" lon="7.20142">
        <ele>380.2</ele>
        <time>2024-01-26T16:38:46Z</time>
      </trkpt>
      <trkpt lat="48.70458" lon="7.20112">
        <ele>380</ele>
        <time>2024-01-26T16:38:51Z</time>
      </trkpt>
      <trkpt lat="48.70453" lon="7.20099">
        <ele>380</ele>
        <time>2024-01-26T16:38:52Z</time>
      </trkpt>
      <trkpt lat="48.70443" lon="7.20072">
        <ele>379.9</ele>
        <time>2024-01-26T16:38:58Z</time>
      </trkpt>
      <trkpt lat="48.70443" lon="7.20067">
        <ele>379.9</ele>
        <time>2024-01-26T16:38:59Z</time>
      </trkpt>
      <trkpt lat="48.70437" lon="7.20038">
        <ele>380.1</ele>
        <time>2024-01-26T16:39:07Z</time>
      </trkpt>
      <trkpt lat="48.70436" lon="7.20029">
        <ele>380.2</ele>
        <time>2024-01-26T16:39:09Z</time>
      </trkpt>
      <trkpt lat="48.70431" lon="7.2">
        <ele>380.5</ele>
        <time>2024-01-26T16:39:14Z</time>
      </trkpt>
      <trkpt lat="48.7043" lon="7.19995">
        <ele>380.6</ele>
        <time>2024-01-26T16:39:15Z</time>
      </trkpt>
      <trkpt lat="48.70424" lon="7.19962">
        <ele>380.9</ele>
        <time>2024-01-26T16:39:20Z</time>
      </trkpt>
      <trkpt lat="48.70419" lon="7.19934">
        <ele>381</ele>
        <time>2024-01-26T16:39:24Z</time>
      </trkpt>
      <trkpt lat="48.70412" lon="7.19909">
        <ele>380.9</ele>
        <time>2024-01-26T16:39:28Z</time>
      </trkpt>
      <trkpt lat="48.70403" lon="7.19879">
        <ele>380.8</ele>
        <time>2024-01-26T16:39:33Z</time>
      </trkpt>
      <trkpt lat="48.70394" lon="7.19855">
        <ele>380.8</ele>
        <time>2024-01-26T16:39:37Z</time>
      </trkpt>
      <trkpt lat="48.70385" lon="7.19831">
        <ele>380.9</ele>
        <time>2024-01-26T16:39:41Z</time>
      </trkpt>
      <trkpt lat="48.70379" lon="7.198">
        <ele>381.1</ele>
        <time>2024-01-26T16:39:46Z</time>
      </trkpt>
      <trkpt lat="48.70374" lon="7.19773">
        <ele>381.6</ele>
        <time>2024-01-26T16:39:51Z</time>
      </trkpt>
      <trkpt lat="48.70371" lon="7.19756">
        <ele>382</ele>
        <time>2024-01-26T16:39:54Z</time>
      </trkpt>
      <trkpt lat="48.70363" lon="7.19732">
        <ele>382.6</ele>
        <time>2024-01-26T16:40:00Z</time>
      </trkpt>
      <trkpt lat="48.70352" lon="7.19753">
        <ele>382.9</ele>
        <time>2024-01-26T16:40:10Z</time>
      </trkpt>
      <trkpt lat="48.70343" lon="7.19759">
        <ele>383</ele>
        <time>2024-01-26T16:40:17Z</time>
      </trkpt>
      <trkpt lat="48.7033" lon="7.19738">
        <ele>383.4</ele>
        <time>2024-01-26T16:40:28Z</time>
      </trkpt>
      <trkpt lat="48.70322" lon="7.19713">
        <ele>383.7</ele>
        <time>2024-01-26T16:40:37Z</time>
      </trkpt>
      <trkpt lat="48.70314" lon="7.19687">
        <ele>383.9</ele>
        <time>2024-01-26T16:40:47Z</time>
      </trkpt>
      <trkpt lat="48.70314" lon="7.19685">
        <ele>383.9</ele>
        <time>2024-01-26T16:40:48Z</time>
      </trkpt>
      <trkpt lat="48.70305" lon="7.19659">
        <ele>383.9</ele>
        <time>2024-01-26T16:40:59Z</time>
      </trkpt>
      <trkpt lat="48.70296" lon="7.19635">
        <ele>383.7</ele>
        <time>2024-01-26T16:41:08Z</time>
      </trkpt>
      <trkpt lat="48.70287" lon="7.19609">
        <ele>383.6</ele>
        <time>2024-01-26T16:41:18Z</time>
      </trkpt>
      <trkpt lat="48.70279" lon="7.19583">
        <ele>383.4</ele>
        <time>2024-01-26T16:41:28Z</time>
      </trkpt>
      <trkpt lat="48.70268" lon="7.1956">
        <ele>383.3</ele>
        <time>2024-01-26T16:41:37Z</time>
      </trkpt>
      <trkpt lat="48.70257" lon="7.19538">
        <ele>383.4</ele>
        <time>2024-01-26T16:41:45Z</time>
      </trkpt>
      <trkpt lat="48.70248" lon="7.19513">
        <ele>383.6</ele>
        <time>2024-01-26T16:41:53Z</time>
      </trkpt>
      <trkpt lat="48.70236" lon="7.19489">
        <ele>383.9</ele>
        <time>2024-01-26T16:42:02Z</time>
      </trkpt>
      <trkpt lat="48.70224" lon="7.19467">
        <ele>384.2</ele>
        <time>2024-01-26T16:42:12Z</time>
      </trkpt>
      <trkpt lat="48.70209" lon="7.1945">
        <ele>384.7</ele>
        <time>2024-01-26T16:42:20Z</time>
      </trkpt>
      <trkpt lat="48.70199" lon="7.19425">
        <ele>385.3</ele>
        <time>2024-01-26T16:42:29Z</time>
      </trkpt>
      <trkpt lat="48.70192" lon="7.19398">
        <ele>386.2</ele>
        <time>2024-01-26T16:42:39Z</time>
      </trkpt>
      <trkpt lat="48.70184" lon="7.19371">
        <ele>387.1</ele>
        <time>2024-01-26T16:42:48Z</time>
      </trkpt>
      <trkpt lat="48.70174" lon="7.19348">
        <ele>388.3</ele>
        <time>2024-01-26T16:42:56Z</time>
      </trkpt>
      <trkpt lat="48.70172" lon="7.19337">
        <ele>388.8</ele>
        <time>2024-01-26T16:43:01Z</time>
      </trkpt>
      <trkpt lat="48.70174" lon="7.19327">
        <ele>389.3</ele>
        <time>2024-01-26T16:43:05Z</time>
      </trkpt>
      <trkpt lat="48.70171" lon="7.19299">
        <ele>390.5</ele>
        <time>2024-01-26T16:43:14Z</time>
      </trkpt>
      <trkpt lat="48.70163" lon="7.19273">
        <ele>391.1</ele>
        <time>2024-01-26T16:43:21Z</time>
      </trkpt>
      <trkpt lat="48.70154" lon="7.1925">
        <ele>391.7</ele>
        <time>2024-01-26T16:43:28Z</time>
      </trkpt>
      <trkpt lat="48.70151" lon="7.19222">
        <ele>392.2</ele>
        <time>2024-01-26T16:43:38Z</time>
      </trkpt>
      <trkpt lat="48.70157" lon="7.19195">
        <ele>392.5</ele>
        <time>2024-01-26T16:43:47Z</time>
      </trkpt>
      <trkpt lat="48.70159" lon="7.19168">
        <ele>392.6</ele>
        <time>2024-01-26T16:43:55Z</time>
      </trkpt>
      <trkpt lat="48.70166" lon="7.19142">
        <ele>392.5</ele>
        <time>2024-01-26T16:44:02Z</time>
      </trkpt>
      <trkpt lat="48.70179" lon="7.19119">
        <ele>392.3</ele>
        <time>2024-01-26T16:44:10Z</time>
      </trkpt>
      <trkpt lat="48.70196" lon="7.19099">
        <ele>392.1</ele>
        <time>2024-01-26T16:44:19Z</time>
      </trkpt>
      <trkpt lat="48.70215" lon="7.19092">
        <ele>392.2</ele>
        <time>2024-01-26T16:44:28Z</time>
      </trkpt>
      <trkpt lat="48.70231" lon="7.19075">
        <ele>392.3</ele>
        <time>2024-01-26T16:44:35Z</time>
      </trkpt>
      <trkpt lat="48.70231" lon="7.1905">
        <ele>392.2</ele>
        <time>2024-01-26T16:44:42Z</time>
      </trkpt>
      <trkpt lat="48.70227" lon="7.19021">
        <ele>392.1</ele>
        <time>2024-01-26T16:44:49Z</time>
      </trkpt>
      <trkpt lat="48.70226" lon="7.18997">
        <ele>392</ele>
        <time>2024-01-26T16:44:55Z</time>
      </trkpt>
      <trkpt lat="48.70221" lon="7.18967">
        <ele>391.7</ele>
        <time>2024-01-26T16:45:00Z</time>
      </trkpt>
      <trkpt lat="48.70215" lon="7.18941">
        <ele>391.4</ele>
        <time>2024-01-26T16:45:04Z</time>
      </trkpt>
      <trkpt lat="48.70207" lon="7.18915">
        <ele>391.1</ele>
        <time>2024-01-26T16:45:08Z</time>
      </trkpt>
      <trkpt lat="48.702" lon="7.18888">
        <ele>390.7</ele>
        <time>2024-01-26T16:45:12Z</time>
      </trkpt>
      <trkpt lat="48.70195" lon="7.18861">
        <ele>390.3</ele>
        <time>2024-01-26T16:45:16Z</time>
      </trkpt>
      <trkpt lat="48.70194" lon="7.18839">
        <ele>390</ele>
        <time>2024-01-26T16:45:19Z</time>
      </trkpt>
      <trkpt lat="48.70194" lon="7.18819">
        <ele>389.6</ele>
        <time>2024-01-26T16:45:22Z</time>
      </trkpt>
      <trkpt lat="48.70196" lon="7.18791">
        <ele>389</ele>
        <time>2024-01-26T16:45:26Z</time>
      </trkpt>
      <trkpt lat="48.70199" lon="7.18763">
        <ele>388.3</ele>
        <time>2024-01-26T16:45:30Z</time>
      </trkpt>
      <trkpt lat="48.70204" lon="7.18731">
        <ele>387.4</ele>
        <time>2024-01-26T16:45:35Z</time>
      </trkpt>
      <trkpt lat="48.70206" lon="7.18703">
        <ele>386.7</ele>
        <time>2024-01-26T16:45:39Z</time>
      </trkpt>
      <trkpt lat="48.70207" lon="7.18696">
        <ele>386.6</ele>
        <time>2024-01-26T16:45:40Z</time>
      </trkpt>
      <trkpt lat="48.70208" lon="7.18665">
        <ele>386</ele>
        <time>2024-01-26T16:45:45Z</time>
      </trkpt>
      <trkpt lat="48.70208" lon="7.1866">
        <ele>385.9</ele>
        <time>2024-01-26T16:45:46Z</time>
      </trkpt>
      <trkpt lat="48.702" lon="7.18633">
        <ele>385.5</ele>
        <time>2024-01-26T16:45:53Z</time>
      </trkpt>
      <trkpt lat="48.70195" lon="7.18622">
        <ele>385.6</ele>
        <time>2024-01-26T16:45:56Z</time>
      </trkpt>
      <trkpt lat="48.7018" lon="7.18596">
        <ele>385.9</ele>
        <time>2024-01-26T16:46:01Z</time>
      </trkpt>
      <trkpt lat="48.70167" lon="7.18574">
        <ele>386.2</ele>
        <time>2024-01-26T16:46:05Z</time>
      </trkpt>
      <trkpt lat="48.70156" lon="7.18551">
        <ele>386.5</ele>
        <time>2024-01-26T16:46:09Z</time>
      </trkpt>
      <trkpt lat="48.70146" lon="7.18529">
        <ele>386.6</ele>
        <time>2024-01-26T16:46:13Z</time>
      </trkpt>
      <trkpt lat="48.7014" lon="7.1851">
        <ele>386.6</ele>
        <time>2024-01-26T16:46:16Z</time>
      </trkpt>
      <trkpt lat="48.70135" lon="7.18484">
        <ele>386.5</ele>
        <time>2024-01-26T16:46:20Z</time>
      </trkpt>
      <trkpt lat="48.70129" lon="7.18451">
        <ele>386.2</ele>
        <time>2024-01-26T16:46:25Z</time>
      </trkpt>
      <trkpt lat="48.70122" lon="7.18422">
        <ele>386</ele>
        <time>2024-01-26T16:46:30Z</time>
      </trkpt>
      <trkpt lat="48.70116" lon="7.18395">
        <ele>385.8</ele>
        <time>2024-01-26T16:46:34Z</time>
      </trkpt>
      <trkpt lat="48.70111" lon="7.18362">
        <ele>385.7</ele>
        <time>2024-01-26T16:46:39Z</time>
      </trkpt>
      <trkpt lat="48.7011" lon="7.18348">
        <ele>385.6</ele>
        <time>2024-01-26T16:46:41Z</time>
      </trkpt>
      <trkpt lat="48.70107" lon="7.18321">
        <ele>385.6</ele>
        <time>2024-01-26T16:46:45Z</time>
      </trkpt>
      <trkpt lat="48.70104" lon="7.18291">
        <ele>385.5</ele>
        <time>2024-01-26T16:46:53Z</time>
      </trkpt>
      <trkpt lat="48.70104" lon="7.18277">
        <ele>385.5</ele>
        <time>2024-01-26T16:46:57Z</time>
      </trkpt>
      <trkpt lat="48.70098" lon="7.18249">
        <ele>385.5</ele>
        <time>2024-01-26T16:47:02Z</time>
      </trkpt>
      <trkpt lat="48.70093" lon="7.1822">
        <ele>385.6</ele>
        <time>2024-01-26T16:47:06Z</time>
      </trkpt>
      <trkpt lat="48.70089" lon="7.18192">
        <ele>385.9</ele>
        <time>2024-01-26T16:47:10Z</time>
      </trkpt>
      <trkpt lat="48.70086" lon="7.18178">
        <ele>385.9</ele>
        <time>2024-01-26T16:47:12Z</time>
      </trkpt>
      <trkpt lat="48.70079" lon="7.18153">
        <ele>386</ele>
        <time>2024-01-26T16:47:16Z</time>
      </trkpt>
      <trkpt lat="48.70072" lon="7.18127">
        <ele>386</ele>
        <time>2024-01-26T16:47:20Z</time>
      </trkpt>
      <trkpt lat="48.70063" lon="7.18095">
        <ele>386</ele>
        <time>2024-01-26T16:47:25Z</time>
      </trkpt>
      <trkpt lat="48.70054" lon="7.18071">
        <ele>386</ele>
        <time>2024-01-26T16:47:29Z</time>
      </trkpt>
      <trkpt lat="48.70046" lon="7.18045">
        <ele>386</ele>
        <time>2024-01-26T16:47:33Z</time>
      </trkpt>
      <trkpt lat="48.70042" lon="7.18023">
        <ele>385.9</ele>
        <time>2024-01-26T16:47:36Z</time>
      </trkpt>
      <trkpt lat="48.70044" lon="7.18001">
        <ele>385.9</ele>
        <time>2024-01-26T16:47:39Z</time>
      </trkpt>
      <trkpt lat="48.70052" lon="7.17988">
        <ele>385.6</ele>
        <time>2024-01-26T16:47:41Z</time>
      </trkpt>
      <trkpt lat="48.70056" lon="7.17982">
        <ele>385.5</ele>
        <time>2024-01-26T16:47:42Z</time>
      </trkpt>
      <trkpt lat="48.7006" lon="7.17977">
        <ele>385.3</ele>
        <time>2024-01-26T16:47:43Z</time>
      </trkpt>
      <trkpt lat="48.70076" lon="7.17962">
        <ele>384.8</ele>
        <time>2024-01-26T16:47:47Z</time>
      </trkpt>
      <trkpt lat="48.70078" lon="7.17962">
        <ele>384.7</ele>
        <time>2024-01-26T16:47:52Z</time>
      </trkpt>
      <trkpt lat="48.70064" lon="7.17982">
        <ele>385.3</ele>
        <time>2024-01-26T16:47:59Z</time>
      </trkpt>
      <trkpt lat="48.70054" lon="7.1801">
        <ele>385.9</ele>
        <time>2024-01-26T16:48:04Z</time>
      </trkpt>
      <trkpt lat="48.70054" lon="7.18016">
        <ele>385.9</ele>
        <time>2024-01-26T16:48:05Z</time>
      </trkpt>
      <trkpt lat="48.70055" lon="7.18036">
        <ele>386</ele>
        <time>2024-01-26T16:48:08Z</time>
      </trkpt>
      <trkpt lat="48.70062" lon="7.18068">
        <ele>386</ele>
        <time>2024-01-26T16:48:13Z</time>
      </trkpt>
      <trkpt lat="48.7007" lon="7.18094">
        <ele>386</ele>
        <time>2024-01-26T16:48:17Z</time>
      </trkpt>
      <trkpt lat="48.70077" lon="7.1812">
        <ele>386</ele>
        <time>2024-01-26T16:48:21Z</time>
      </trkpt>
      <trkpt lat="48.70085" lon="7.18145">
        <ele>386</ele>
        <time>2024-01-26T16:48:25Z</time>
      </trkpt>
      <trkpt lat="48.70092" lon="7.18176">
        <ele>385.9</ele>
        <time>2024-01-26T16:48:30Z</time>
      </trkpt>
      <trkpt lat="48.70098" lon="7.18198">
        <ele>385.7</ele>
        <time>2024-01-26T16:48:33Z</time>
      </trkpt>
      <trkpt lat="48.70104" lon="7.18227">
        <ele>385.5</ele>
        <time>2024-01-26T16:48:37Z</time>
      </trkpt>
      <trkpt lat="48.7011" lon="7.18255">
        <ele>385.5</ele>
        <time>2024-01-26T16:48:41Z</time>
      </trkpt>
      <trkpt lat="48.70115" lon="7.18276">
        <ele>385.5</ele>
        <time>2024-01-26T16:48:44Z</time>
      </trkpt>
      <trkpt lat="48.70116" lon="7.18289">
        <ele>385.5</ele>
        <time>2024-01-26T16:48:46Z</time>
      </trkpt>
      <trkpt lat="48.70116" lon="7.18306">
        <ele>385.6</ele>
        <time>2024-01-26T16:48:49Z</time>
      </trkpt>
      <trkpt lat="48.70116" lon="7.18315">
        <ele>385.6</ele>
        <time>2024-01-26T16:48:51Z</time>
      </trkpt>
      <trkpt lat="48.70117" lon="7.18342">
        <ele>385.7</ele>
        <time>2024-01-26T16:48:59Z</time>
      </trkpt>
      <trkpt lat="48.70116" lon="7.18368">
        <ele>385.8</ele>
        <time>2024-01-26T16:49:06Z</time>
      </trkpt>
      <trkpt lat="48.70117" lon="7.18397">
        <ele>385.9</ele>
        <time>2024-01-26T16:49:11Z</time>
      </trkpt>
      <trkpt lat="48.7012" lon="7.18425">
        <ele>386.1</ele>
        <time>2024-01-26T16:49:15Z</time>
      </trkpt>
      <trkpt lat="48.70122" lon="7.18452">
        <ele>386.3</ele>
        <time>2024-01-26T16:49:19Z</time>
      </trkpt>
      <trkpt lat="48.70126" lon="7.18483">
        <ele>386.6</ele>
        <time>2024-01-26T16:49:24Z</time>
      </trkpt>
      <trkpt lat="48.70132" lon="7.18514">
        <ele>386.6</ele>
        <time>2024-01-26T16:49:29Z</time>
      </trkpt>
      <trkpt lat="48.70149" lon="7.18543">
        <ele>386.4</ele>
        <time>2024-01-26T16:49:33Z</time>
      </trkpt>
      <trkpt lat="48.70163" lon="7.18568">
        <ele>386</ele>
        <time>2024-01-26T16:49:37Z</time>
      </trkpt>
      <trkpt lat="48.70176" lon="7.18589">
        <ele>385.7</ele>
        <time>2024-01-26T16:49:40Z</time>
      </trkpt>
      <trkpt lat="48.70187" lon="7.1861">
        <ele>385.5</ele>
        <time>2024-01-26T16:49:43Z</time>
      </trkpt>
      <trkpt lat="48.70197" lon="7.1863">
        <ele>385.8</ele>
        <time>2024-01-26T16:49:46Z</time>
      </trkpt>
      <trkpt lat="48.70207" lon="7.18655">
        <ele>386.4</ele>
        <time>2024-01-26T16:49:50Z</time>
      </trkpt>
      <trkpt lat="48.70208" lon="7.18663">
        <ele>386.5</ele>
        <time>2024-01-26T16:49:51Z</time>
      </trkpt>
      <trkpt lat="48.70208" lon="7.18677">
        <ele>386.8</ele>
        <time>2024-01-26T16:49:53Z</time>
      </trkpt>
      <trkpt lat="48.70203" lon="7.18707">
        <ele>387.6</ele>
        <time>2024-01-26T16:49:59Z</time>
      </trkpt>
      <trkpt lat="48.70201" lon="7.18739">
        <ele>388.5</ele>
        <time>2024-01-26T16:50:07Z</time>
      </trkpt>
      <trkpt lat="48.70195" lon="7.18769">
        <ele>389.3</ele>
        <time>2024-01-26T16:50:12Z</time>
      </trkpt>
      <trkpt lat="48.7019" lon="7.18802">
        <ele>389.9</ele>
        <time>2024-01-26T16:50:17Z</time>
      </trkpt>
      <trkpt lat="48.70188" lon="7.18822">
        <ele>390.3</ele>
        <time>2024-01-26T16:50:20Z</time>
      </trkpt>
      <trkpt lat="48.7019" lon="7.1885">
        <ele>390.7</ele>
        <time>2024-01-26T16:50:24Z</time>
      </trkpt>
      <trkpt lat="48.70191" lon="7.18878">
        <ele>391.1</ele>
        <time>2024-01-26T16:50:28Z</time>
      </trkpt>
      <trkpt lat="48.70195" lon="7.18911">
        <ele>391.5</ele>
        <time>2024-01-26T16:50:33Z</time>
      </trkpt>
      <trkpt lat="48.70201" lon="7.18944">
        <ele>391.8</ele>
        <time>2024-01-26T16:50:38Z</time>
      </trkpt>
      <trkpt lat="48.70205" lon="7.18972">
        <ele>392</ele>
        <time>2024-01-26T16:50:42Z</time>
      </trkpt>
      <trkpt lat="48.70206" lon="7.19001">
        <ele>392.1</ele>
        <time>2024-01-26T16:50:46Z</time>
      </trkpt>
      <trkpt lat="48.70208" lon="7.19029">
        <ele>392.2</ele>
        <time>2024-01-26T16:50:50Z</time>
      </trkpt>
      <trkpt lat="48.70211" lon="7.19041">
        <ele>392.3</ele>
        <time>2024-01-26T16:50:52Z</time>
      </trkpt>
      <trkpt lat="48.70217" lon="7.19065">
        <ele>392.2</ele>
        <time>2024-01-26T16:50:56Z</time>
      </trkpt>
      <trkpt lat="48.70219" lon="7.19092">
        <ele>392.1</ele>
        <time>2024-01-26T16:51:02Z</time>
      </trkpt>
      <trkpt lat="48.70216" lon="7.19118">
        <ele>392.3</ele>
        <time>2024-01-26T16:51:08Z</time>
      </trkpt>
      <trkpt lat="48.70211" lon="7.19146">
        <ele>392.4</ele>
        <time>2024-01-26T16:51:13Z</time>
      </trkpt>
      <trkpt lat="48.70203" lon="7.19172">
        <ele>392.6</ele>
        <time>2024-01-26T16:51:17Z</time>
      </trkpt>
      <trkpt lat="48.70195" lon="7.19197">
        <ele>392.6</ele>
        <time>2024-01-26T16:51:21Z</time>
      </trkpt>
      <trkpt lat="48.70187" lon="7.19224">
        <ele>392.2</ele>
        <time>2024-01-26T16:51:25Z</time>
      </trkpt>
      <trkpt lat="48.70182" lon="7.19255">
        <ele>391.7</ele>
        <time>2024-01-26T16:51:29Z</time>
      </trkpt>
      <trkpt lat="48.70182" lon="7.19262">
        <ele>391.5</ele>
        <time>2024-01-26T16:51:30Z</time>
      </trkpt>
      <trkpt lat="48.70181" lon="7.19277">
        <ele>391.1</ele>
        <time>2024-01-26T16:51:32Z</time>
      </trkpt>
      <trkpt lat="48.70181" lon="7.19308">
        <ele>390.1</ele>
        <time>2024-01-26T16:51:36Z</time>
      </trkpt>
      <trkpt lat="48.70186" lon="7.19339">
        <ele>388.6</ele>
        <time>2024-01-26T16:51:40Z</time>
      </trkpt>
      <trkpt lat="48.70198" lon="7.19362">
        <ele>387.3</ele>
        <time>2024-01-26T16:51:43Z</time>
      </trkpt>
      <trkpt lat="48.70205" lon="7.19375">
        <ele>386.7</ele>
        <time>2024-01-26T16:51:45Z</time>
      </trkpt>
      <trkpt lat="48.70216" lon="7.19394">
        <ele>385.8</ele>
        <time>2024-01-26T16:51:48Z</time>
      </trkpt>
      <trkpt lat="48.70232" lon="7.19416">
        <ele>384.9</ele>
        <time>2024-01-26T16:51:52Z</time>
      </trkpt>
      <trkpt lat="48.70235" lon="7.19422">
        <ele>384.8</ele>
        <time>2024-01-26T16:51:53Z</time>
      </trkpt>
      <trkpt lat="48.70249" lon="7.19446">
        <ele>384.2</ele>
        <time>2024-01-26T16:51:58Z</time>
      </trkpt>
      <trkpt lat="48.70255" lon="7.1946">
        <ele>384.1</ele>
        <time>2024-01-26T16:52:02Z</time>
      </trkpt>
      <trkpt lat="48.70265" lon="7.19485">
        <ele>383.7</ele>
        <time>2024-01-26T16:52:10Z</time>
      </trkpt>
      <trkpt lat="48.70266" lon="7.19488">
        <ele>383.7</ele>
        <time>2024-01-26T16:52:11Z</time>
      </trkpt>
      <trkpt lat="48.70276" lon="7.19516">
        <ele>383.4</ele>
        <time>2024-01-26T16:52:17Z</time>
      </trkpt>
      <trkpt lat="48.70289" lon="7.19538">
        <ele>383.3</ele>
        <time>2024-01-26T16:52:21Z</time>
      </trkpt>
      <trkpt lat="48.70301" lon="7.19566">
        <ele>383.4</ele>
        <time>2024-01-26T16:52:26Z</time>
      </trkpt>
      <trkpt lat="48.70302" lon="7.19571">
        <ele>383.4</ele>
        <time>2024-01-26T16:52:27Z</time>
      </trkpt>
      <trkpt lat="48.70309" lon="7.19587">
        <ele>383.6</ele>
        <time>2024-01-26T16:52:30Z</time>
      </trkpt>
      <trkpt lat="48.70324" lon="7.19613">
        <ele>383.8</ele>
        <time>2024-01-26T16:52:35Z</time>
      </trkpt>
      <trkpt lat="48.70327" lon="7.19619">
        <ele>383.8</ele>
        <time>2024-01-26T16:52:36Z</time>
      </trkpt>
      <trkpt lat="48.70338" lon="7.19642">
        <ele>384</ele>
        <time>2024-01-26T16:52:40Z</time>
      </trkpt>
      <trkpt lat="48.70347" lon="7.19667">
        <ele>383.9</ele>
        <time>2024-01-26T16:52:44Z</time>
      </trkpt>
      <trkpt lat="48.70353" lon="7.19688">
        <ele>383.6</ele>
        <time>2024-01-26T16:52:47Z</time>
      </trkpt>
      <trkpt lat="48.70361" lon="7.19712">
        <ele>383.3</ele>
        <time>2024-01-26T16:52:51Z</time>
      </trkpt>
      <trkpt lat="48.7037" lon="7.19738">
        <ele>382.9</ele>
        <time>2024-01-26T16:52:55Z</time>
      </trkpt>
      <trkpt lat="48.70372" lon="7.19745">
        <ele>382.8</ele>
        <time>2024-01-26T16:52:56Z</time>
      </trkpt>
      <trkpt lat="48.70374" lon="7.19752">
        <ele>382.7</ele>
        <time>2024-01-26T16:52:57Z</time>
      </trkpt>
      <trkpt lat="48.70376" lon="7.19766">
        <ele>382.6</ele>
        <time>2024-01-26T16:52:59Z</time>
      </trkpt>
      <trkpt lat="48.70377" lon="7.19778">
        <ele>382.3</ele>
        <time>2024-01-26T16:53:01Z</time>
      </trkpt>
      <trkpt lat="48.70376" lon="7.19792">
        <ele>382</ele>
        <time>2024-01-26T16:53:04Z</time>
      </trkpt>
      <trkpt lat="48.70379" lon="7.1982">
        <ele>381.3</ele>
        <time>2024-01-26T16:53:11Z</time>
      </trkpt>
      <trkpt lat="48.70382" lon="7.1983">
        <ele>381.1</ele>
        <time>2024-01-26T16:53:12Z</time>
      </trkpt>
      <trkpt lat="48.7039" lon="7.19856">
        <ele>380.9</ele>
        <time>2024-01-26T16:53:17Z</time>
      </trkpt>
      <trkpt lat="48.70391" lon="7.19863">
        <ele>380.9</ele>
        <time>2024-01-26T16:53:18Z</time>
      </trkpt>
      <trkpt lat="48.70399" lon="7.19891">
        <ele>380.8</ele>
        <time>2024-01-26T16:53:22Z</time>
      </trkpt>
      <trkpt lat="48.70405" lon="7.19911">
        <ele>380.8</ele>
        <time>2024-01-26T16:53:25Z</time>
      </trkpt>
      <trkpt lat="48.70412" lon="7.19938">
        <ele>380.9</ele>
        <time>2024-01-26T16:53:29Z</time>
      </trkpt>
      <trkpt lat="48.7042" lon="7.19966">
        <ele>381</ele>
        <time>2024-01-26T16:53:33Z</time>
      </trkpt>
      <trkpt lat="48.70426" lon="7.19994">
        <ele>380.9</ele>
        <time>2024-01-26T16:53:37Z</time>
      </trkpt>
      <trkpt lat="48.7043" lon="7.20022">
        <ele>380.6</ele>
        <time>2024-01-26T16:53:41Z</time>
      </trkpt>
      <trkpt lat="48.70435" lon="7.20055">
        <ele>380.2</ele>
        <time>2024-01-26T16:53:46Z</time>
      </trkpt>
      <trkpt lat="48.70443" lon="7.20081">
        <ele>380</ele>
        <time>2024-01-26T16:53:50Z</time>
      </trkpt>
      <trkpt lat="48.70448" lon="7.20092">
        <ele>379.9</ele>
        <time>2024-01-26T16:53:52Z</time>
      </trkpt>
      <trkpt lat="48.7046" lon="7.20115">
        <ele>380</ele>
        <time>2024-01-26T16:53:56Z</time>
      </trkpt>
      <trkpt lat="48.70467" lon="7.20126">
        <ele>380</ele>
        <time>2024-01-26T16:53:58Z</time>
      </trkpt>
      <trkpt lat="48.7047" lon="7.20132">
        <ele>380</ele>
        <time>2024-01-26T16:53:59Z</time>
      </trkpt>
      <trkpt lat="48.70479" lon="7.20153">
        <ele>380.2</ele>
        <time>2024-01-26T16:54:03Z</time>
      </trkpt>
      <trkpt lat="48.7049" lon="7.20176">
        <ele>380.4</ele>
        <time>2024-01-26T16:54:10Z</time>
      </trkpt>
      <trkpt lat="48.70491" lon="7.20174">
        <ele>380.3</ele>
        <time>2024-01-26T16:54:12Z</time>
      </trkpt>
      <trkpt lat="48.70489" lon="7.20167">
        <ele>380.3</ele>
        <time>2024-01-26T16:54:14Z</time>
      </trkpt>
      <trkpt lat="48.70478" lon="7.20142">
        <ele>380.1</ele>
        <time>2024-01-26T16:54:19Z</time>
      </trkpt>
      <trkpt lat="48.70466" lon="7.20119">
        <ele>380</ele>
        <time>2024-01-26T16:54:23Z</time>
      </trkpt>
      <trkpt lat="48.70454" lon="7.20096">
        <ele>379.9</ele>
        <time>2024-01-26T16:54:27Z</time>
      </trkpt>
      <trkpt lat="48.70449" lon="7.20084">
        <ele>379.9</ele>
        <time>2024-01-26T16:54:29Z</time>
      </trkpt>
      <trkpt lat="48.7044" lon="7.20055">
        <ele>380.2</ele>
        <time>2024-01-26T16:54:34Z</time>
      </trkpt>
      <trkpt lat="48.70434" lon="7.20027">
        <ele>380.5</ele>
        <time>2024-01-26T16:54:38Z</time>
      </trkpt>
      <trkpt lat="48.70428" lon="7.19995">
        <ele>380.9</ele>
        <time>2024-01-26T16:54:43Z</time>
      </trkpt>
      <trkpt lat="48.70423" lon="7.19969">
        <ele>381</ele>
        <time>2024-01-26T16:54:47Z</time>
      </trkpt>
      <trkpt lat="48.70417" lon="7.19939">
        <ele>380.9</ele>
        <time>2024-01-26T16:54:51Z</time>
      </trkpt>
      <trkpt lat="48.70409" lon="7.19911">
        <ele>380.8</ele>
        <time>2024-01-26T16:54:55Z</time>
      </trkpt>
      <trkpt lat="48.70403" lon="7.19883">
        <ele>380.8</ele>
        <time>2024-01-26T16:54:59Z</time>
      </trkpt>
      <trkpt lat="48.70396" lon="7.19855">
        <ele>380.9</ele>
        <time>2024-01-26T16:55:04Z</time>
      </trkpt>
      <trkpt lat="48.70391" lon="7.19828">
        <ele>381.1</ele>
        <time>2024-01-26T16:55:12Z</time>
      </trkpt>
      <trkpt lat="48.70391" lon="7.19799">
        <ele>381.7</ele>
        <time>2024-01-26T16:55:23Z</time>
      </trkpt>
      <trkpt lat="48.70389" lon="7.19771">
        <ele>382.5</ele>
        <time>2024-01-26T16:55:33Z</time>
      </trkpt>
      <trkpt lat="48.70381" lon="7.19746">
        <ele>382.8</ele>
        <time>2024-01-26T16:55:43Z</time>
      </trkpt>
      <trkpt lat="48.70368" lon="7.19725">
        <ele>383.1</ele>
        <time>2024-01-26T16:55:51Z</time>
      </trkpt>
      <trkpt lat="48.70357" lon="7.19699">
        <ele>383.5</ele>
        <time>2024-01-26T16:56:00Z</time>
      </trkpt>
      <trkpt lat="48.70349" lon="7.19673">
        <ele>383.9</ele>
        <time>2024-01-26T16:56:08Z</time>
      </trkpt>
      <trkpt lat="48.70341" lon="7.19648">
        <ele>384</ele>
        <time>2024-01-26T16:56:16Z</time>
      </trkpt>
      <trkpt lat="48.70328" lon="7.19625">
        <ele>383.8</ele>
        <time>2024-01-26T16:56:24Z</time>
      </trkpt>
      <trkpt lat="48.70316" lon="7.19603">
        <ele>383.6</ele>
        <time>2024-01-26T16:56:31Z</time>
      </trkpt>
      <trkpt lat="48.70305" lon="7.19578">
        <ele>383.4</ele>
        <time>2024-01-26T16:56:39Z</time>
      </trkpt>
      <trkpt lat="48.70294" lon="7.19555">
        <ele>383.3</ele>
        <time>2024-01-26T16:56:46Z</time>
      </trkpt>
      <trkpt lat="48.70281" lon="7.19532">
        <ele>383.4</ele>
        <time>2024-01-26T16:56:54Z</time>
      </trkpt>
      <trkpt lat="48.70268" lon="7.1951">
        <ele>383.6</ele>
        <time>2024-01-26T16:57:01Z</time>
      </trkpt>
      <trkpt lat="48.70261" lon="7.19484">
        <ele>383.9</ele>
        <time>2024-01-26T16:57:08Z</time>
      </trkpt>
      <trkpt lat="48.70249" lon="7.19458">
        <ele>384.3</ele>
        <time>2024-01-26T16:57:15Z</time>
      </trkpt>
      <trkpt lat="48.70237" lon="7.19436">
        <ele>384.8</ele>
        <time>2024-01-26T16:57:21Z</time>
      </trkpt>
      <trkpt lat="48.70224" lon="7.19418">
        <ele>385.4</ele>
        <time>2024-01-26T16:57:27Z</time>
      </trkpt>
      <trkpt lat="48.70212" lon="7.19396">
        <ele>386.3</ele>
        <time>2024-01-26T16:57:34Z</time>
      </trkpt>
      <trkpt lat="48.70213" lon="7.19398">
        <ele>386.2</ele>
        <time>2024-01-26T16:57:38Z</time>
      </trkpt>
      <trkpt lat="48.7023" lon="7.19418">
        <ele>385.2</ele>
        <time>2024-01-26T16:57:44Z</time>
      </trkpt>
      <trkpt lat="48.70243" lon="7.19438">
        <ele>384.6</ele>
        <time>2024-01-26T16:57:50Z</time>
      </trkpt>
      <trkpt lat="48.70256" lon="7.19461">
        <ele>384.1</ele>
        <time>2024-01-26T16:57:57Z</time>
      </trkpt>
      <trkpt lat="48.70265" lon="7.19486">
        <ele>383.8</ele>
        <time>2024-01-26T16:58:05Z</time>
      </trkpt>
      <trkpt lat="48.70276" lon="7.19511">
        <ele>383.5</ele>
        <time>2024-01-26T16:58:13Z</time>
      </trkpt>
      <trkpt lat="48.70286" lon="7.19535">
        <ele>383.3</ele>
        <time>2024-01-26T16:58:20Z</time>
      </trkpt>
      <trkpt lat="48.70297" lon="7.1956">
        <ele>383.3</ele>
        <time>2024-01-26T16:58:27Z</time>
      </trkpt>
      <trkpt lat="48.70306" lon="7.19586">
        <ele>383.5</ele>
        <time>2024-01-26T16:58:34Z</time>
      </trkpt>
      <trkpt lat="48.70317" lon="7.19612">
        <ele>383.7</ele>
        <time>2024-01-26T16:58:42Z</time>
      </trkpt>
      <trkpt lat="48.70324" lon="7.1964">
        <ele>383.9</ele>
        <time>2024-01-26T16:58:50Z</time>
      </trkpt>
      <trkpt lat="48.70339" lon="7.19664">
        <ele>383.9</ele>
        <time>2024-01-26T16:58:57Z</time>
      </trkpt>
      <trkpt lat="48.70347" lon="7.19692">
        <ele>383.6</ele>
        <time>2024-01-26T16:59:04Z</time>
      </trkpt>
      <trkpt lat="48.70357" lon="7.19719">
        <ele>383.2</ele>
        <time>2024-01-26T16:59:11Z</time>
      </trkpt>
      <trkpt lat="48.70366" lon="7.19743">
        <ele>382.9</ele>
        <time>2024-01-26T16:59:17Z</time>
      </trkpt>
      <trkpt lat="48.70372" lon="7.1977">
        <ele>382.6</ele>
        <time>2024-01-26T16:59:23Z</time>
      </trkpt>
      <trkpt lat="48.70379" lon="7.198">
        <ele>381.8</ele>
        <time>2024-01-26T16:59:29Z</time>
      </trkpt>
      <trkpt lat="48.70386" lon="7.19827">
        <ele>381.2</ele>
        <time>2024-01-26T16:59:35Z</time>
      </trkpt>
      <trkpt lat="48.70394" lon="7.19854">
        <ele>380.9</ele>
        <time>2024-01-26T16:59:42Z</time>
      </trkpt>
      <trkpt lat="48.70401" lon="7.19876">
        <ele>380.8</ele>
        <time>2024-01-26T16:59:50Z</time>
      </trkpt>
      <trkpt lat="48.70398" lon="7.19846">
        <ele>380.9</ele>
        <time>2024-01-26T16:59:59Z</time>
      </trkpt>
      <trkpt lat="48.70396" lon="7.19836">
        <ele>381</ele>
        <time>2024-01-26T17:00:01Z</time>
      </trkpt>
      <trkpt lat="48.70392" lon="7.19809">
        <ele>381.4</ele>
        <time>2024-01-26T17:00:05Z</time>
      </trkpt>
      <trkpt lat="48.70387" lon="7.19781">
        <ele>382.1</ele>
        <time>2024-01-26T17:00:09Z</time>
      </trkpt>
      <trkpt lat="48.70381" lon="7.19751">
        <ele>382.7</ele>
        <time>2024-01-26T17:00:14Z</time>
      </trkpt>
      <trkpt lat="48.7037" lon="7.19723">
        <ele>383.1</ele>
        <time>2024-01-26T17:00:19Z</time>
      </trkpt>
      <trkpt lat="48.70358" lon="7.19695">
        <ele>383.5</ele>
        <time>2024-01-26T17:00:24Z</time>
      </trkpt>
      <trkpt lat="48.70348" lon="7.19669">
        <ele>383.8</ele>
        <time>2024-01-26T17:00:28Z</time>
      </trkpt>
      <trkpt lat="48.70342" lon="7.19657">
        <ele>383.9</ele>
        <time>2024-01-26T17:00:29Z</time>
      </trkpt>
      <trkpt lat="48.70328" lon="7.19632">
        <ele>383.9</ele>
        <time>2024-01-26T17:00:35Z</time>
      </trkpt>
      <trkpt lat="48.70316" lon="7.1961">
        <ele>383.7</ele>
        <time>2024-01-26T17:00:39Z</time>
      </trkpt>
      <trkpt lat="48.70305" lon="7.19581">
        <ele>383.5</ele>
        <time>2024-01-26T17:00:44Z</time>
      </trkpt>
      <trkpt lat="48.70301" lon="7.19569">
        <ele>383.4</ele>
        <time>2024-01-26T17:00:46Z</time>
      </trkpt>
      <trkpt lat="48.7029" lon="7.19545">
        <ele>383.3</ele>
        <time>2024-01-26T17:00:50Z</time>
      </trkpt>
      <trkpt lat="48.70287" lon="7.19541">
        <ele>383.3</ele>
        <time>2024-01-26T17:00:51Z</time>
      </trkpt>
      <trkpt lat="48.70279" lon="7.19529">
        <ele>383.3</ele>
        <time>2024-01-26T17:00:55Z</time>
      </trkpt>
      <trkpt lat="48.70268" lon="7.19504">
        <ele>383.5</ele>
        <time>2024-01-26T17:01:02Z</time>
      </trkpt>
      <trkpt lat="48.70257" lon="7.19481">
        <ele>383.9</ele>
        <time>2024-01-26T17:01:07Z</time>
      </trkpt>
      <trkpt lat="48.70246" lon="7.19457">
        <ele>384.2</ele>
        <time>2024-01-26T17:01:11Z</time>
      </trkpt>
      <trkpt lat="48.70233" lon="7.19433">
        <ele>384.7</ele>
        <time>2024-01-26T17:01:15Z</time>
      </trkpt>
      <trkpt lat="48.7022" lon="7.19408">
        <ele>385.5</ele>
        <time>2024-01-26T17:01:19Z</time>
      </trkpt>
      <trkpt lat="48.70207" lon="7.19388">
        <ele>386.4</ele>
        <time>2024-01-26T17:01:23Z</time>
      </trkpt>
      <trkpt lat="48.70202" lon="7.19377">
        <ele>386.8</ele>
        <time>2024-01-26T17:01:25Z</time>
      </trkpt>
      <trkpt lat="48.70198" lon="7.19356">
        <ele>387.6</ele>
        <time>2024-01-26T17:01:28Z</time>
      </trkpt>
      <trkpt lat="48.70198" lon="7.19335">
        <ele>388.6</ele>
        <time>2024-01-26T17:01:31Z</time>
      </trkpt>
      <trkpt lat="48.70198" lon="7.19303">
        <ele>390.1</ele>
        <time>2024-01-26T17:01:36Z</time>
      </trkpt>
      <trkpt lat="48.70199" lon="7.1928">
        <ele>391.1</ele>
        <time>2024-01-26T17:01:39Z</time>
      </trkpt>
      <trkpt lat="48.70204" lon="7.19247">
        <ele>391.8</ele>
        <time>2024-01-26T17:01:44Z</time>
      </trkpt>
      <trkpt lat="48.70208" lon="7.19233">
        <ele>392</ele>
        <time>2024-01-26T17:01:46Z</time>
      </trkpt>
      <trkpt lat="48.7021" lon="7.19228">
        <ele>392.2</ele>
        <time>2024-01-26T17:01:47Z</time>
      </trkpt>
      <trkpt lat="48.70212" lon="7.19222">
        <ele>392.2</ele>
        <time>2024-01-26T17:01:48Z</time>
      </trkpt>
      <trkpt lat="48.70223" lon="7.19199">
        <ele>392.6</ele>
        <time>2024-01-26T17:01:53Z</time>
      </trkpt>
      <trkpt lat="48.70225" lon="7.19196">
        <ele>392.6</ele>
        <time>2024-01-26T17:01:54Z</time>
      </trkpt>
      <trkpt lat="48.70236" lon="7.19172">
        <ele>392.6</ele>
        <time>2024-01-26T17:02:01Z</time>
      </trkpt>
      <trkpt lat="48.70238" lon="7.19168">
        <ele>392.5</ele>
        <time>2024-01-26T17:02:02Z</time>
      </trkpt>
      <trkpt lat="48.70248" lon="7.19143">
        <ele>392.3</ele>
        <time>2024-01-26T17:02:07Z</time>
      </trkpt>
      <trkpt lat="48.70252" lon="7.19125">
        <ele>392.3</ele>
        <time>2024-01-26T17:02:10Z</time>
      </trkpt>
      <trkpt lat="48.70253" lon="7.19109">
        <ele>392.2</ele>
        <time>2024-01-26T17:02:12Z</time>
      </trkpt>
      <trkpt lat="48.70251" lon="7.19095">
        <ele>392.2</ele>
        <time>2024-01-26T17:02:14Z</time>
      </trkpt>
      <trkpt lat="48.70246" lon="7.19073">
        <ele>392.2</ele>
        <time>2024-01-26T17:02:17Z</time>
      </trkpt>
      <trkpt lat="48.70241" lon="7.1906">
        <ele>392.3</ele>
        <time>2024-01-26T17:02:19Z</time>
      </trkpt>
      <trkpt lat="48.70233" lon="7.19033">
        <ele>392.2</ele>
        <time>2024-01-26T17:02:23Z</time>
      </trkpt>
      <trkpt lat="48.70228" lon="7.19">
        <ele>392.1</ele>
        <time>2024-01-26T17:02:28Z</time>
      </trkpt>
      <trkpt lat="48.70223" lon="7.18971">
        <ele>392</ele>
        <time>2024-01-26T17:02:32Z</time>
      </trkpt>
      <trkpt lat="48.70219" lon="7.1895">
        <ele>391.8</ele>
        <time>2024-01-26T17:02:35Z</time>
      </trkpt>
      <trkpt lat="48.70212" lon="7.18924">
        <ele>391.5</ele>
        <time>2024-01-26T17:02:39Z</time>
      </trkpt>
      <trkpt lat="48.70205" lon="7.18897">
        <ele>391.1</ele>
        <time>2024-01-26T17:02:43Z</time>
      </trkpt>
      <trkpt lat="48.70199" lon="7.18866">
        <ele>390.7</ele>
        <time>2024-01-26T17:02:47Z</time>
      </trkpt>
      <trkpt lat="48.70196" lon="7.18838">
        <ele>390.3</ele>
        <time>2024-01-26T17:02:51Z</time>
      </trkpt>
      <trkpt lat="48.70195" lon="7.18812">
        <ele>389.8</ele>
        <time>2024-01-26T17:02:56Z</time>
      </trkpt>
      <trkpt lat="48.702" lon="7.18785">
        <ele>389.3</ele>
        <time>2024-01-26T17:03:02Z</time>
      </trkpt>
      <trkpt lat="48.70204" lon="7.18758">
        <ele>388.6</ele>
        <time>2024-01-26T17:03:06Z</time>
      </trkpt>
      <trkpt lat="48.70206" lon="7.18743">
        <ele>388.2</ele>
        <time>2024-01-26T17:03:08Z</time>
      </trkpt>
      <trkpt lat="48.70211" lon="7.18709">
        <ele>387.2</ele>
        <time>2024-01-26T17:03:13Z</time>
      </trkpt>
      <trkpt lat="48.7021" lon="7.18693">
        <ele>386.8</ele>
        <time>2024-01-26T17:03:15Z</time>
      </trkpt>
      <trkpt lat="48.70208" lon="7.18663">
        <ele>386.2</ele>
        <time>2024-01-26T17:03:19Z</time>
      </trkpt>
      <trkpt lat="48.70205" lon="7.18648">
        <ele>385.9</ele>
        <time>2024-01-26T17:03:21Z</time>
      </trkpt>
      <trkpt lat="48.70198" lon="7.18628">
        <ele>385.6</ele>
        <time>2024-01-26T17:03:24Z</time>
      </trkpt>
      <trkpt lat="48.7019" lon="7.18609">
        <ele>385.6</ele>
        <time>2024-01-26T17:03:27Z</time>
      </trkpt>
      <trkpt lat="48.70178" lon="7.18586">
        <ele>385.9</ele>
        <time>2024-01-26T17:03:31Z</time>
      </trkpt>
      <trkpt lat="48.70167" lon="7.18563">
        <ele>386.2</ele>
        <time>2024-01-26T17:03:35Z</time>
      </trkpt>
      <trkpt lat="48.70155" lon="7.18539">
        <ele>386.5</ele>
        <time>2024-01-26T17:03:39Z</time>
      </trkpt>
      <trkpt lat="48.70146" lon="7.18516">
        <ele>386.6</ele>
        <time>2024-01-26T17:03:43Z</time>
      </trkpt>
      <trkpt lat="48.70142" lon="7.18495">
        <ele>386.6</ele>
        <time>2024-01-26T17:03:46Z</time>
      </trkpt>
      <trkpt lat="48.7014" lon="7.18481">
        <ele>386.5</ele>
        <time>2024-01-26T17:03:47Z</time>
      </trkpt>
      <trkpt lat="48.70135" lon="7.18453">
        <ele>386.3</ele>
        <time>2024-01-26T17:03:53Z</time>
      </trkpt>
      <trkpt lat="48.70135" lon="7.18447">
        <ele>386.3</ele>
        <time>2024-01-26T17:03:55Z</time>
      </trkpt>
      <trkpt lat="48.70134" lon="7.1844">
        <ele>386.2</ele>
        <time>2024-01-26T17:03:57Z</time>
      </trkpt>
      <trkpt lat="48.70136" lon="7.18422">
        <ele>386.1</ele>
        <time>2024-01-26T17:04:02Z</time>
      </trkpt>
      <trkpt lat="48.70131" lon="7.18391">
        <ele>385.9</ele>
        <time>2024-01-26T17:04:07Z</time>
      </trkpt>
      <trkpt lat="48.70123" lon="7.18362">
        <ele>385.7</ele>
        <time>2024-01-26T17:04:11Z</time>
      </trkpt>
      <trkpt lat="48.70114" lon="7.18334">
        <ele>385.6</ele>
        <time>2024-01-26T17:04:15Z</time>
      </trkpt>
      <trkpt lat="48.70108" lon="7.18306">
        <ele>385.5</ele>
        <time>2024-01-26T17:04:19Z</time>
      </trkpt>
      <trkpt lat="48.70103" lon="7.18277">
        <ele>385.5</ele>
        <time>2024-01-26T17:04:23Z</time>
      </trkpt>
      <trkpt lat="48.70096" lon="7.18249">
        <ele>385.5</ele>
        <time>2024-01-26T17:04:27Z</time>
      </trkpt>
      <trkpt lat="48.70095" lon="7.18241">
        <ele>385.5</ele>
        <time>2024-01-26T17:04:28Z</time>
      </trkpt>
      <trkpt lat="48.70089" lon="7.18213">
        <ele>385.7</ele>
        <time>2024-01-26T17:04:32Z</time>
      </trkpt>
      <trkpt lat="48.70083" lon="7.18182">
        <ele>385.9</ele>
        <time>2024-01-26T17:04:37Z</time>
      </trkpt>
      <trkpt lat="48.70081" lon="7.18176">
        <ele>386</ele>
        <time>2024-01-26T17:04:38Z</time>
      </trkpt>
      <trkpt lat="48.70073" lon="7.18151">
        <ele>386</ele>
        <time>2024-01-26T17:04:42Z</time>
      </trkpt>
      <trkpt lat="48.70064" lon="7.18125">
        <ele>386</ele>
        <time>2024-01-26T17:04:46Z</time>
      </trkpt>
      <trkpt lat="48.70063" lon="7.18118">
        <ele>386</ele>
        <time>2024-01-26T17:04:47Z</time>
      </trkpt>
      <trkpt lat="48.7006" lon="7.18093">
        <ele>386</ele>
        <time>2024-01-26T17:04:51Z</time>
      </trkpt>
      <trkpt lat="48.70057" lon="7.18076">
        <ele>386</ele>
        <time>2024-01-26T17:04:55Z</time>
      </trkpt>
      <trkpt lat="48.70054" lon="7.18065">
        <ele>386</ele>
        <time>2024-01-26T17:05:01Z</time>
      </trkpt>
      <trkpt lat="48.70054" lon="7.18068">
        <ele>386</ele>
        <time>2024-01-26T17:05:02Z</time>
      </trkpt>
      <trkpt lat="48.70063" lon="7.18098">
        <ele>386</ele>
        <time>2024-01-26T17:05:08Z</time>
      </trkpt>
      <trkpt lat="48.70064" lon="7.18104">
        <ele>386</ele>
        <time>2024-01-26T17:05:09Z</time>
      </trkpt>
      <trkpt lat="48.70068" lon="7.18122">
        <ele>386</ele>
        <time>2024-01-26T17:05:12Z</time>
      </trkpt>
      <trkpt lat="48.70074" lon="7.1814">
        <ele>386</ele>
        <time>2024-01-26T17:05:15Z</time>
      </trkpt>
      <trkpt lat="48.70081" lon="7.18164">
        <ele>386</ele>
        <time>2024-01-26T17:05:19Z</time>
      </trkpt>
      <trkpt lat="48.7009" lon="7.18191">
        <ele>385.8</ele>
        <time>2024-01-26T17:05:23Z</time>
      </trkpt>
      <trkpt lat="48.70097" lon="7.18219">
        <ele>385.6</ele>
        <time>2024-01-26T17:05:27Z</time>
      </trkpt>
      <trkpt lat="48.70102" lon="7.18248">
        <ele>385.5</ele>
        <time>2024-01-26T17:05:31Z</time>
      </trkpt>
      <trkpt lat="48.70105" lon="7.18277">
        <ele>385.5</ele>
        <time>2024-01-26T17:05:35Z</time>
      </trkpt>
      <trkpt lat="48.70107" lon="7.18305">
        <ele>385.5</ele>
        <time>2024-01-26T17:05:39Z</time>
      </trkpt>
      <trkpt lat="48.70109" lon="7.18334">
        <ele>385.6</ele>
        <time>2024-01-26T17:05:43Z</time>
      </trkpt>
      <trkpt lat="48.70111" lon="7.18356">
        <ele>385.7</ele>
        <time>2024-01-26T17:05:46Z</time>
      </trkpt>
      <trkpt lat="48.70117" lon="7.18383">
        <ele>385.8</ele>
        <time>2024-01-26T17:05:50Z</time>
      </trkpt>
      <trkpt lat="48.70119" lon="7.18399">
        <ele>385.9</ele>
        <time>2024-01-26T17:05:54Z</time>
      </trkpt>
      <trkpt lat="48.70126" lon="7.1843">
        <ele>386.2</ele>
        <time>2024-01-26T17:06:02Z</time>
      </trkpt>
      <trkpt lat="48.70126" lon="7.18436">
        <ele>386.2</ele>
        <time>2024-01-26T17:06:03Z</time>
      </trkpt>
      <trkpt lat="48.70127" lon="7.18467">
        <ele>386.5</ele>
        <time>2024-01-26T17:06:08Z</time>
      </trkpt>
      <trkpt lat="48.7013" lon="7.18493">
        <ele>386.6</ele>
        <time>2024-01-26T17:06:12Z</time>
      </trkpt>
      <trkpt lat="48.70139" lon="7.18524">
        <ele>386.6</ele>
        <time>2024-01-26T17:06:17Z</time>
      </trkpt>
      <trkpt lat="48.7015" lon="7.1855">
        <ele>386.3</ele>
        <time>2024-01-26T17:06:21Z</time>
      </trkpt>
      <trkpt lat="48.70152" lon="7.18557">
        <ele>386.2</ele>
        <time>2024-01-26T17:06:22Z</time>
      </trkpt>
      <trkpt lat="48.70163" lon="7.18582">
        <ele>385.9</ele>
        <time>2024-01-26T17:06:26Z</time>
      </trkpt>
      <trkpt lat="48.70173" lon="7.18608">
        <ele>385.6</ele>
        <time>2024-01-26T17:06:30Z</time>
      </trkpt>
      <trkpt lat="48.70182" lon="7.18633">
        <ele>385.7</ele>
        <time>2024-01-26T17:06:34Z</time>
      </trkpt>
      <trkpt lat="48.70186" lon="7.18653">
        <ele>386</ele>
        <time>2024-01-26T17:06:37Z</time>
      </trkpt>
      <trkpt lat="48.70183" lon="7.18685">
        <ele>386.7</ele>
        <time>2024-01-26T17:06:42Z</time>
      </trkpt>
      <trkpt lat="48.70179" lon="7.18717">
        <ele>387.5</ele>
        <time>2024-01-26T17:06:47Z</time>
      </trkpt>
      <trkpt lat="48.70178" lon="7.18724">
        <ele>387.7</ele>
        <time>2024-01-26T17:06:48Z</time>
      </trkpt>
      <trkpt lat="48.70181" lon="7.18751">
        <ele>388.5</ele>
        <time>2024-01-26T17:06:53Z</time>
      </trkpt>
      <trkpt lat="48.70189" lon="7.18775">
        <ele>389.2</ele>
        <time>2024-01-26T17:07:02Z</time>
      </trkpt>
      <trkpt lat="48.70199" lon="7.18749">
        <ele>388.5</ele>
        <time>2024-01-26T17:07:07Z</time>
      </trkpt>
      <trkpt lat="48.70204" lon="7.1872">
        <ele>387.7</ele>
        <time>2024-01-26T17:07:11Z</time>
      </trkpt>
      <trkpt lat="48.70204" lon="7.18688">
        <ele>386.8</ele>
        <time>2024-01-26T17:07:15Z</time>
      </trkpt>
      <trkpt lat="48.70204" lon="7.18671">
        <ele>386.5</ele>
        <time>2024-01-26T17:07:17Z</time>
      </trkpt>
      <trkpt lat="48.70201" lon="7.18648">
        <ele>386</ele>
        <time>2024-01-26T17:07:20Z</time>
      </trkpt>
      <trkpt lat="48.70196" lon="7.18626">
        <ele>385.6</ele>
        <time>2024-01-26T17:07:23Z</time>
      </trkpt>
      <trkpt lat="48.70189" lon="7.18606">
        <ele>385.5</ele>
        <time>2024-01-26T17:07:26Z</time>
      </trkpt>
      <trkpt lat="48.70178" lon="7.18583">
        <ele>385.8</ele>
        <time>2024-01-26T17:07:30Z</time>
      </trkpt>
      <trkpt lat="48.70164" lon="7.18561">
        <ele>386.2</ele>
        <time>2024-01-26T17:07:34Z</time>
      </trkpt>
      <trkpt lat="48.70152" lon="7.1854">
        <ele>386.5</ele>
        <time>2024-01-26T17:07:38Z</time>
      </trkpt>
      <trkpt lat="48.7015" lon="7.18533">
        <ele>386.5</ele>
        <time>2024-01-26T17:07:39Z</time>
      </trkpt>
      <trkpt lat="48.70145" lon="7.18506">
        <ele>386.6</ele>
        <time>2024-01-26T17:07:43Z</time>
      </trkpt>
      <trkpt lat="48.70141" lon="7.18479">
        <ele>386.6</ele>
        <time>2024-01-26T17:07:47Z</time>
      </trkpt>
      <trkpt lat="48.70135" lon="7.1845">
        <ele>386.3</ele>
        <time>2024-01-26T17:07:52Z</time>
      </trkpt>
      <trkpt lat="48.70134" lon="7.18442">
        <ele>386.3</ele>
        <time>2024-01-26T17:07:54Z</time>
      </trkpt>
      <trkpt lat="48.70133" lon="7.18424">
        <ele>386.1</ele>
        <time>2024-01-26T17:08:00Z</time>
      </trkpt>
      <trkpt lat="48.70133" lon="7.18411">
        <ele>386</ele>
        <time>2024-01-26T17:08:02Z</time>
      </trkpt>
      <trkpt lat="48.7013" lon="7.18377">
        <ele>385.8</ele>
        <time>2024-01-26T17:08:08Z</time>
      </trkpt>
      <trkpt lat="48.70125" lon="7.18347">
        <ele>385.7</ele>
        <time>2024-01-26T17:08:12Z</time>
      </trkpt>
      <trkpt lat="48.70119" lon="7.18319">
        <ele>385.6</ele>
        <time>2024-01-26T17:08:16Z</time>
      </trkpt>
      <trkpt lat="48.70114" lon="7.1829">
        <ele>385.5</ele>
        <time>2024-01-26T17:08:20Z</time>
      </trkpt>
      <trkpt lat="48.70106" lon="7.18262">
        <ele>385.5</ele>
        <time>2024-01-26T17:08:24Z</time>
      </trkpt>
      <trkpt lat="48.70102" lon="7.18232">
        <ele>385.5</ele>
        <time>2024-01-26T17:08:28Z</time>
      </trkpt>
      <trkpt lat="48.70098" lon="7.18203">
        <ele>385.7</ele>
        <time>2024-01-26T17:08:32Z</time>
      </trkpt>
      <trkpt lat="48.70095" lon="7.18183">
        <ele>385.8</ele>
        <time>2024-01-26T17:08:35Z</time>
      </trkpt>
      <trkpt lat="48.70088" lon="7.18151">
        <ele>386</ele>
        <time>2024-01-26T17:08:40Z</time>
      </trkpt>
      <trkpt lat="48.7008" lon="7.18126">
        <ele>386</ele>
        <time>2024-01-26T17:08:44Z</time>
      </trkpt>
      <trkpt lat="48.70075" lon="7.18106">
        <ele>386</ele>
        <time>2024-01-26T17:08:47Z</time>
      </trkpt>
      <trkpt lat="48.7007" lon="7.18083">
        <ele>386</ele>
        <time>2024-01-26T17:08:51Z</time>
      </trkpt>
      <trkpt lat="48.70067" lon="7.18074">
        <ele>386</ele>
        <time>2024-01-26T17:08:53Z</time>
      </trkpt>
      <trkpt lat="48.70055" lon="7.18053">
        <ele>386</ele>
        <time>2024-01-26T17:09:01Z</time>
      </trkpt>
      <trkpt lat="48.70052" lon="7.18041">
        <ele>386</ele>
        <time>2024-01-26T17:09:05Z</time>
      </trkpt>
      <trkpt lat="48.70049" lon="7.1801">
        <ele>385.9</ele>
        <time>2024-01-26T17:09:10Z</time>
      </trkpt>
      <trkpt lat="48.70053" lon="7.17997">
        <ele>385.7</ele>
        <time>2024-01-26T17:09:12Z</time>
      </trkpt>
      <trkpt lat="48.70059" lon="7.17987">
        <ele>385.4</ele>
        <time>2024-01-26T17:09:14Z</time>
      </trkpt>
      <trkpt lat="48.70077" lon="7.17968">
        <ele>384.8</ele>
        <time>2024-01-26T17:09:18Z</time>
      </trkpt>
      <trkpt lat="48.70093" lon="7.17946">
        <ele>384</ele>
        <time>2024-01-26T17:09:22Z</time>
      </trkpt>
      <trkpt lat="48.70108" lon="7.1792">
        <ele>382.8</ele>
        <time>2024-01-26T17:09:26Z</time>
      </trkpt>
      <trkpt lat="48.70121" lon="7.17891">
        <ele>381.5</ele>
        <time>2024-01-26T17:09:30Z</time>
      </trkpt>
      <trkpt lat="48.70129" lon="7.1786">
        <ele>380.1</ele>
        <time>2024-01-26T17:09:34Z</time>
      </trkpt>
      <trkpt lat="48.70136" lon="7.17828">
        <ele>378.8</ele>
        <time>2024-01-26T17:09:38Z</time>
      </trkpt>
      <trkpt lat="48.70142" lon="7.17795">
        <ele>377.5</ele>
        <time>2024-01-26T17:09:42Z</time>
      </trkpt>
      <trkpt lat="48.70147" lon="7.17761">
        <ele>376</ele>
        <time>2024-01-26T17:09:46Z</time>
      </trkpt>
      <trkpt lat="48.70152" lon="7.17728">
        <ele>374.6</ele>
        <time>2024-01-26T17:09:50Z</time>
      </trkpt>
      <trkpt lat="48.70153" lon="7.17699">
        <ele>373.3</ele>
        <time>2024-01-26T17:09:54Z</time>
      </trkpt>
      <trkpt lat="48.70155" lon="7.17671">
        <ele>371.9</ele>
        <time>2024-01-26T17:10:00Z</time>
      </trkpt>
      <trkpt lat="48.70161" lon="7.17644">
        <ele>370.5</ele>
        <time>2024-01-26T17:10:09Z</time>
      </trkpt>
      <trkpt lat="48.70172" lon="7.17621">
        <ele>369.2</ele>
        <time>2024-01-26T17:10:17Z</time>
      </trkpt>
      <trkpt lat="48.70178" lon="7.17609">
        <ele>368.6</ele>
        <time>2024-01-26T17:10:21Z</time>
      </trkpt>
      <trkpt lat="48.70185" lon="7.1758">
        <ele>367.6</ele>
        <time>2024-01-26T17:10:28Z</time>
      </trkpt>
      <trkpt lat="48.70192" lon="7.17554">
        <ele>366.6</ele>
        <time>2024-01-26T17:10:35Z</time>
      </trkpt>
      <trkpt lat="48.702" lon="7.17529">
        <ele>365.6</ele>
        <time>2024-01-26T17:10:42Z</time>
      </trkpt>
      <trkpt lat="48.70213" lon="7.17506">
        <ele>364.6</ele>
        <time>2024-01-26T17:10:48Z</time>
      </trkpt>
      <trkpt lat="48.70228" lon="7.17488">
        <ele>363.7</ele>
        <time>2024-01-26T17:10:54Z</time>
      </trkpt>
      <trkpt lat="48.70244" lon="7.17467">
        <ele>362.8</ele>
        <time>2024-01-26T17:11:01Z</time>
      </trkpt>
      <trkpt lat="48.70259" lon="7.17448">
        <ele>361.9</ele>
        <time>2024-01-26T17:11:08Z</time>
      </trkpt>
      <trkpt lat="48.70273" lon="7.1743">
        <ele>360.6</ele>
        <time>2024-01-26T17:11:15Z</time>
      </trkpt>
      <trkpt lat="48.70286" lon="7.17411">
        <ele>359.2</ele>
        <time>2024-01-26T17:11:23Z</time>
      </trkpt>
      <trkpt lat="48.70301" lon="7.17391">
        <ele>357.7</ele>
        <time>2024-01-26T17:11:30Z</time>
      </trkpt>
      <trkpt lat="48.70305" lon="7.17381">
        <ele>357.2</ele>
        <time>2024-01-26T17:11:33Z</time>
      </trkpt>
      <trkpt lat="48.70289" lon="7.17364">
        <ele>359.2</ele>
        <time>2024-01-26T17:11:42Z</time>
      </trkpt>
      <trkpt lat="48.70273" lon="7.17351">
        <ele>360.9</ele>
        <time>2024-01-26T17:11:49Z</time>
      </trkpt>
      <trkpt lat="48.70259" lon="7.17331">
        <ele>362.6</ele>
        <time>2024-01-26T17:11:57Z</time>
      </trkpt>
      <trkpt lat="48.70247" lon="7.17308">
        <ele>364.2</ele>
        <time>2024-01-26T17:12:06Z</time>
      </trkpt>
      <trkpt lat="48.70237" lon="7.17285">
        <ele>365.4</ele>
        <time>2024-01-26T17:12:15Z</time>
      </trkpt>
      <trkpt lat="48.70225" lon="7.17264">
        <ele>366.6</ele>
        <time>2024-01-26T17:12:23Z</time>
      </trkpt>
      <trkpt lat="48.70215" lon="7.17241">
        <ele>367.7</ele>
        <time>2024-01-26T17:12:31Z</time>
      </trkpt>
      <trkpt lat="48.70201" lon="7.17218">
        <ele>368.7</ele>
        <time>2024-01-26T17:12:40Z</time>
      </trkpt>
      <trkpt lat="48.70193" lon="7.17193">
        <ele>369.5</ele>
        <time>2024-01-26T17:12:48Z</time>
      </trkpt>
      <trkpt lat="48.70184" lon="7.17169">
        <ele>370.3</ele>
        <time>2024-01-26T17:12:56Z</time>
      </trkpt>
      <trkpt lat="48.70174" lon="7.17144">
        <ele>371.1</ele>
        <time>2024-01-26T17:13:05Z</time>
      </trkpt>
      <trkpt lat="48.70161" lon="7.17122">
        <ele>371.4</ele>
        <time>2024-01-26T17:13:13Z</time>
      </trkpt>
      <trkpt lat="48.7015" lon="7.171">
        <ele>371.7</ele>
        <time>2024-01-26T17:13:20Z</time>
      </trkpt>
      <trkpt lat="48.70141" lon="7.17076">
        <ele>372.3</ele>
        <time>2024-01-26T17:13:27Z</time>
      </trkpt>
      <trkpt lat="48.70132" lon="7.1705">
        <ele>372.9</ele>
        <time>2024-01-26T17:13:35Z</time>
      </trkpt>
      <trkpt lat="48.70143" lon="7.1703">
        <ele>371</ele>
        <time>2024-01-26T17:13:43Z</time>
      </trkpt>
      <trkpt lat="48.70161" lon="7.17015">
        <ele>369.3</ele>
        <time>2024-01-26T17:13:50Z</time>
      </trkpt>
      <trkpt lat="48.70178" lon="7.17002">
        <ele>367.9</ele>
        <time>2024-01-26T17:13:57Z</time>
      </trkpt>
      <trkpt lat="48.70195" lon="7.1699">
        <ele>366.7</ele>
        <time>2024-01-26T17:14:03Z</time>
      </trkpt>
      <trkpt lat="48.70212" lon="7.16977">
        <ele>365.7</ele>
        <time>2024-01-26T17:14:09Z</time>
      </trkpt>
      <trkpt lat="48.70228" lon="7.16963">
        <ele>364.8</ele>
        <time>2024-01-26T17:14:15Z</time>
      </trkpt>
      <trkpt lat="48.70247" lon="7.16949">
        <ele>363.8</ele>
        <time>2024-01-26T17:14:22Z</time>
      </trkpt>
      <trkpt lat="48.70264" lon="7.16939">
        <ele>362.7</ele>
        <time>2024-01-26T17:14:29Z</time>
      </trkpt>
      <trkpt lat="48.70282" lon="7.16927">
        <ele>361.4</ele>
        <time>2024-01-26T17:14:36Z</time>
      </trkpt>
      <trkpt lat="48.70298" lon="7.16915">
        <ele>360.1</ele>
        <time>2024-01-26T17:14:42Z</time>
      </trkpt>
      <trkpt lat="48.70315" lon="7.16904">
        <ele>358.6</ele>
        <time>2024-01-26T17:14:48Z</time>
      </trkpt>
      <trkpt lat="48.70332" lon="7.16893">
        <ele>357</ele>
        <time>2024-01-26T17:14:54Z</time>
      </trkpt>
      <trkpt lat="48.70351" lon="7.16882">
        <ele>355.6</ele>
        <time>2024-01-26T17:15:01Z</time>
      </trkpt>
      <trkpt lat="48.70368" lon="7.1687">
        <ele>354.7</ele>
        <time>2024-01-26T17:15:07Z</time>
      </trkpt>
      <trkpt lat="48.70385" lon="7.16858">
        <ele>354.1</ele>
        <time>2024-01-26T17:15:13Z</time>
      </trkpt>
      <trkpt lat="48.70403" lon="7.16842">
        <ele>353.6</ele>
        <time>2024-01-26T17:15:20Z</time>
      </trkpt>
      <trkpt lat="48.70418" lon="7.16825">
        <ele>353.4</ele>
        <time>2024-01-26T17:15:26Z</time>
      </trkpt>
      <trkpt lat="48.70432" lon="7.16806">
        <ele>353.3</ele>
        <time>2024-01-26T17:15:32Z</time>
      </trkpt>
      <trkpt lat="48.70447" lon="7.16785">
        <ele>353.6</ele>
        <time>2024-01-26T17:15:39Z</time>
      </trkpt>
      <trkpt lat="48.70462" lon="7.16764">
        <ele>354.3</ele>
        <time>2024-01-26T17:15:46Z</time>
      </trkpt>
      <trkpt lat="48.70476" lon="7.16744">
        <ele>355.2</ele>
        <time>2024-01-26T17:15:53Z</time>
      </trkpt>
      <trkpt lat="48.7049" lon="7.16722">
        <ele>355.9</ele>
        <time>2024-01-26T17:16:00Z</time>
      </trkpt>
      <trkpt lat="48.70503" lon="7.16698">
        <ele>356.5</ele>
        <time>2024-01-26T17:16:07Z</time>
      </trkpt>
      <trkpt lat="48.70514" lon="7.16674">
        <ele>356.7</ele>
        <time>2024-01-26T17:16:13Z</time>
      </trkpt>
      <trkpt lat="48.70526" lon="7.1665">
        <ele>356.3</ele>
        <time>2024-01-26T17:16:19Z</time>
      </trkpt>
      <trkpt lat="48.7054" lon="7.16628">
        <ele>355.6</ele>
        <time>2024-01-26T17:16:25Z</time>
      </trkpt>
      <trkpt lat="48.70552" lon="7.16608">
        <ele>354.9</ele>
        <time>2024-01-26T17:16:31Z</time>
      </trkpt>
      <trkpt lat="48.70566" lon="7.16588">
        <ele>354</ele>
        <time>2024-01-26T17:16:37Z</time>
      </trkpt>
      <trkpt lat="48.7058" lon="7.16566">
        <ele>353</ele>
        <time>2024-01-26T17:16:43Z</time>
      </trkpt>
      <trkpt lat="48.70595" lon="7.16543">
        <ele>352</ele>
        <time>2024-01-26T17:16:49Z</time>
      </trkpt>
      <trkpt lat="48.70608" lon="7.16522">
        <ele>351.1</ele>
        <time>2024-01-26T17:16:55Z</time>
      </trkpt>
      <trkpt lat="48.70621" lon="7.16502">
        <ele>350</ele>
        <time>2024-01-26T17:17:01Z</time>
      </trkpt>
      <trkpt lat="48.70634" lon="7.16477">
        <ele>348.8</ele>
        <time>2024-01-26T17:17:07Z</time>
      </trkpt>
      <trkpt lat="48.70647" lon="7.16454">
        <ele>347.9</ele>
        <time>2024-01-26T17:17:13Z</time>
      </trkpt>
      <trkpt lat="48.70659" lon="7.1643">
        <ele>347.1</ele>
        <time>2024-01-26T17:17:20Z</time>
      </trkpt>
      <trkpt lat="48.7067" lon="7.16404">
        <ele>346</ele>
        <time>2024-01-26T17:17:28Z</time>
      </trkpt>
      <trkpt lat="48.70682" lon="7.16379">
        <ele>344.5</ele>
        <time>2024-01-26T17:17:36Z</time>
      </trkpt>
      <trkpt lat="48.70694" lon="7.16356">
        <ele>342.9</ele>
        <time>2024-01-26T17:17:43Z</time>
      </trkpt>
      <trkpt lat="48.70707" lon="7.16332">
        <ele>341.3</ele>
        <time>2024-01-26T17:17:50Z</time>
      </trkpt>
      <trkpt lat="48.70718" lon="7.1631">
        <ele>339.9</ele>
        <time>2024-01-26T17:17:57Z</time>
      </trkpt>
      <trkpt lat="48.7073" lon="7.16289">
        <ele>338.5</ele>
        <time>2024-01-26T17:18:04Z</time>
      </trkpt>
      <trkpt lat="48.70742" lon="7.16268">
        <ele>337</ele>
        <time>2024-01-26T17:18:11Z</time>
      </trkpt>
      <trkpt lat="48.70757" lon="7.16247">
        <ele>335.1</ele>
        <time>2024-01-26T17:18:18Z</time>
      </trkpt>
      <trkpt lat="48.70771" lon="7.16225">
        <ele>333.3</ele>
        <time>2024-01-26T17:18:25Z</time>
      </trkpt>
      <trkpt lat="48.70784" lon="7.16205">
        <ele>331.7</ele>
        <time>2024-01-26T17:18:31Z</time>
      </trkpt>
      <trkpt lat="48.70796" lon="7.16184">
        <ele>330.2</ele>
        <time>2024-01-26T17:18:37Z</time>
      </trkpt>
      <trkpt lat="48.70809" lon="7.16164">
        <ele>328.7</ele>
        <time>2024-01-26T17:18:43Z</time>
      </trkpt>
      <trkpt lat="48.70821" lon="7.16141">
        <ele>326.9</ele>
        <time>2024-01-26T17:18:50Z</time>
      </trkpt>
      <trkpt lat="48.70837" lon="7.16125">
        <ele>325.1</ele>
        <time>2024-01-26T17:18:56Z</time>
      </trkpt>
      <trkpt lat="48.70855" lon="7.16125">
        <ele>324.3</ele>
        <time>2024-01-26T17:19:02Z</time>
      </trkpt>
      <trkpt lat="48.70874" lon="7.16131">
        <ele>323.6</ele>
        <time>2024-01-26T17:19:08Z</time>
      </trkpt>
      <trkpt lat="48.70893" lon="7.16139">
        <ele>322.9</ele>
        <time>2024-01-26T17:19:15Z</time>
      </trkpt>
      <trkpt lat="48.70913" lon="7.16143">
        <ele>322.1</ele>
        <time>2024-01-26T17:19:22Z</time>
      </trkpt>
      <trkpt lat="48.70933" lon="7.16146">
        <ele>321.5</ele>
        <time>2024-01-26T17:19:28Z</time>
      </trkpt>
      <trkpt lat="48.70951" lon="7.16149">
        <ele>320.8</ele>
        <time>2024-01-26T17:19:34Z</time>
      </trkpt>
      <trkpt lat="48.7097" lon="7.16152">
        <ele>320.2</ele>
        <time>2024-01-26T17:19:40Z</time>
      </trkpt>
      <trkpt lat="48.70988" lon="7.16156">
        <ele>319.6</ele>
        <time>2024-01-26T17:19:46Z</time>
      </trkpt>
      <trkpt lat="48.71008" lon="7.16164">
        <ele>319.1</ele>
        <time>2024-01-26T17:19:52Z</time>
      </trkpt>
      <trkpt lat="48.71026" lon="7.16167">
        <ele>318.9</ele>
        <time>2024-01-26T17:19:57Z</time>
      </trkpt>
      <trkpt lat="48.71046" lon="7.16172">
        <ele>318.8</ele>
        <time>2024-01-26T17:20:03Z</time>
      </trkpt>
      <trkpt lat="48.71065" lon="7.1618">
        <ele>318.8</ele>
        <time>2024-01-26T17:20:09Z</time>
      </trkpt>
      <trkpt lat="48.71084" lon="7.16194">
        <ele>318.7</ele>
        <time>2024-01-26T17:20:15Z</time>
      </trkpt>
      <trkpt lat="48.711" lon="7.16213">
        <ele>318.5</ele>
        <time>2024-01-26T17:20:21Z</time>
      </trkpt>
      <trkpt lat="48.71114" lon="7.16233">
        <ele>318.4</ele>
        <time>2024-01-26T17:20:27Z</time>
      </trkpt>
      <trkpt lat="48.71129" lon="7.16254">
        <ele>318</ele>
        <time>2024-01-26T17:20:33Z</time>
      </trkpt>
      <trkpt lat="48.71147" lon="7.16268">
        <ele>317.3</ele>
        <time>2024-01-26T17:20:40Z</time>
      </trkpt>
      <trkpt lat="48.71151" lon="7.16274">
        <ele>317.1</ele>
        <time>2024-01-26T17:20:42Z</time>
      </trkpt>
    </trkseg>
  </trk>
</gpx>